<?xml version="1.0" encoding="UTF-8" standalone="no" ?>
<gpx xmlns="http://www.topografix.com/GPX/1/1" xmlns:xsi="http://www.w3.org/2001/XMLSchema-instance" xsi:schemaLocation="http://www.topografix.com/GPX/1/1 http://www.topografix.com/GPX/1/1/gpx.xsd" version="1.1" creator="VisuGPX - https://www.visugpx.com">
  <metadata>
    <name>refuge de rulhe</name>
    <desc><![CDATA[beau refuge belle vue au fond de la sauvage vallée d'aston. montée plein versant sud attention au soleil]]></desc>
  </metadata>
  <trk>
    <name><![CDATA[Refuge de rulhe]]></name>
    <trkseg>
      <trkpt lat="42.66483" lon="1.70782">
        <ele>1555.07</ele>
        <time>2017-06-25T07:26:25Z</time>
      </trkpt>
      <trkpt lat="42.66484" lon="1.70797">
        <ele>1554.11</ele>
        <time>2017-06-25T07:26:47Z</time>
      </trkpt>
      <trkpt lat="42.66477" lon="1.70794">
        <ele>1554.11</ele>
        <time>2017-06-25T07:26:58Z</time>
      </trkpt>
      <trkpt lat="42.66464" lon="1.70786">
        <ele>1555.07</ele>
        <time>2017-06-25T07:27:17Z</time>
      </trkpt>
      <trkpt lat="42.66446" lon="1.70804">
        <ele>1556.03</ele>
        <time>2017-06-25T07:27:35Z</time>
      </trkpt>
      <trkpt lat="42.66424" lon="1.70818">
        <ele>1555.07</ele>
        <time>2017-06-25T07:27:58Z</time>
      </trkpt>
      <trkpt lat="42.66415" lon="1.70821">
        <ele>1555.07</ele>
        <time>2017-06-25T07:28:15Z</time>
      </trkpt>
      <trkpt lat="42.66407" lon="1.70822">
        <ele>1555.07</ele>
        <time>2017-06-25T07:28:23Z</time>
      </trkpt>
      <trkpt lat="42.66396" lon="1.70818">
        <ele>1555.07</ele>
        <time>2017-06-25T07:28:36Z</time>
      </trkpt>
      <trkpt lat="42.66382" lon="1.70814">
        <ele>1555.07</ele>
        <time>2017-06-25T07:28:50Z</time>
      </trkpt>
      <trkpt lat="42.66367" lon="1.70798">
        <ele>1556.03</ele>
        <time>2017-06-25T07:29:05Z</time>
      </trkpt>
      <trkpt lat="42.66349" lon="1.70781">
        <ele>1556.03</ele>
        <time>2017-06-25T07:29:24Z</time>
      </trkpt>
      <trkpt lat="42.66346" lon="1.7078">
        <ele>1556.03</ele>
        <time>2017-06-25T07:29:27Z</time>
      </trkpt>
      <trkpt lat="42.6633" lon="1.70772">
        <ele>1556.03</ele>
        <time>2017-06-25T07:29:41Z</time>
      </trkpt>
      <trkpt lat="42.66324" lon="1.70772">
        <ele>1556.03</ele>
        <time>2017-06-25T07:29:46Z</time>
      </trkpt>
      <trkpt lat="42.66303" lon="1.70769">
        <ele>1556.03</ele>
        <time>2017-06-25T07:30:07Z</time>
      </trkpt>
      <trkpt lat="42.66292" lon="1.7077">
        <ele>1556.03</ele>
        <time>2017-06-25T07:30:17Z</time>
      </trkpt>
      <trkpt lat="42.66276" lon="1.70765">
        <ele>1556.03</ele>
        <time>2017-06-25T07:30:32Z</time>
      </trkpt>
      <trkpt lat="42.66268" lon="1.70762">
        <ele>1556.03</ele>
        <time>2017-06-25T07:30:39Z</time>
      </trkpt>
      <trkpt lat="42.6626" lon="1.70757">
        <ele>1556.03</ele>
        <time>2017-06-25T07:30:48Z</time>
      </trkpt>
      <trkpt lat="42.66252" lon="1.70751">
        <ele>1555.07</ele>
        <time>2017-06-25T07:30:56Z</time>
      </trkpt>
      <trkpt lat="42.66248" lon="1.70747">
        <ele>1555.07</ele>
        <time>2017-06-25T07:31:01Z</time>
      </trkpt>
      <trkpt lat="42.66244" lon="1.70744">
        <ele>1555.07</ele>
        <time>2017-06-25T07:31:06Z</time>
      </trkpt>
      <trkpt lat="42.66239" lon="1.7074">
        <ele>1555.07</ele>
        <time>2017-06-25T07:31:12Z</time>
      </trkpt>
      <trkpt lat="42.6623" lon="1.70733">
        <ele>1554.11</ele>
        <time>2017-06-25T07:31:20Z</time>
      </trkpt>
      <trkpt lat="42.66223" lon="1.70724">
        <ele>1553.15</ele>
        <time>2017-06-25T07:31:28Z</time>
      </trkpt>
      <trkpt lat="42.66209" lon="1.70712">
        <ele>1553.15</ele>
        <time>2017-06-25T07:31:43Z</time>
      </trkpt>
      <trkpt lat="42.66204" lon="1.70708">
        <ele>1553.15</ele>
        <time>2017-06-25T07:31:48Z</time>
      </trkpt>
      <trkpt lat="42.66194" lon="1.70708">
        <ele>1552.19</ele>
        <time>2017-06-25T07:31:57Z</time>
      </trkpt>
      <trkpt lat="42.66189" lon="1.70707">
        <ele>1551.22</ele>
        <time>2017-06-25T07:32:04Z</time>
      </trkpt>
      <trkpt lat="42.66182" lon="1.70701">
        <ele>1549.78</ele>
        <time>2017-06-25T07:32:10Z</time>
      </trkpt>
      <trkpt lat="42.66171" lon="1.70686">
        <ele>1549.78</ele>
        <time>2017-06-25T07:32:19Z</time>
      </trkpt>
      <trkpt lat="42.66154" lon="1.70671">
        <ele>1549.78</ele>
        <time>2017-06-25T07:32:37Z</time>
      </trkpt>
      <trkpt lat="42.66149" lon="1.70681">
        <ele>1549.78</ele>
        <time>2017-06-25T07:32:49Z</time>
      </trkpt>
      <trkpt lat="42.66135" lon="1.70685">
        <ele>1551.22</ele>
        <time>2017-06-25T07:33:10Z</time>
      </trkpt>
      <trkpt lat="42.66129" lon="1.70682">
        <ele>1551.22</ele>
        <time>2017-06-25T07:33:18Z</time>
      </trkpt>
      <trkpt lat="42.6612" lon="1.70677">
        <ele>1553.15</ele>
        <time>2017-06-25T07:33:29Z</time>
      </trkpt>
      <trkpt lat="42.6611" lon="1.70675">
        <ele>1554.11</ele>
        <time>2017-06-25T07:33:40Z</time>
      </trkpt>
      <trkpt lat="42.6609" lon="1.70664">
        <ele>1555.07</ele>
        <time>2017-06-25T07:34:00Z</time>
      </trkpt>
      <trkpt lat="42.66074" lon="1.70657">
        <ele>1556.99</ele>
        <time>2017-06-25T07:34:17Z</time>
      </trkpt>
      <trkpt lat="42.66062" lon="1.70644">
        <ele>1557.95</ele>
        <time>2017-06-25T07:34:25Z</time>
      </trkpt>
      <trkpt lat="42.66051" lon="1.7064">
        <ele>1558.92</ele>
        <time>2017-06-25T07:34:37Z</time>
      </trkpt>
      <trkpt lat="42.66033" lon="1.70636">
        <ele>1558.92</ele>
        <time>2017-06-25T07:34:52Z</time>
      </trkpt>
      <trkpt lat="42.66032" lon="1.70637">
        <ele>1558.92</ele>
        <time>2017-06-25T07:34:54Z</time>
      </trkpt>
      <trkpt lat="42.66019" lon="1.70647">
        <ele>1559.88</ele>
        <time>2017-06-25T07:35:08Z</time>
      </trkpt>
      <trkpt lat="42.66005" lon="1.70647">
        <ele>1561.8</ele>
        <time>2017-06-25T07:35:22Z</time>
      </trkpt>
      <trkpt lat="42.65993" lon="1.70649">
        <ele>1562.76</ele>
        <time>2017-06-25T07:35:36Z</time>
      </trkpt>
      <trkpt lat="42.65981" lon="1.70644">
        <ele>1564.2</ele>
        <time>2017-06-25T07:35:47Z</time>
      </trkpt>
      <trkpt lat="42.65972" lon="1.70642">
        <ele>1564.2</ele>
        <time>2017-06-25T07:35:56Z</time>
      </trkpt>
      <trkpt lat="42.65958" lon="1.70637">
        <ele>1566.12</ele>
        <time>2017-06-25T07:36:08Z</time>
      </trkpt>
      <trkpt lat="42.65945" lon="1.70626">
        <ele>1567.09</ele>
        <time>2017-06-25T07:36:18Z</time>
      </trkpt>
      <trkpt lat="42.65942" lon="1.70624">
        <ele>1567.09</ele>
        <time>2017-06-25T07:36:22Z</time>
      </trkpt>
      <trkpt lat="42.65935" lon="1.70627">
        <ele>1569.01</ele>
        <time>2017-06-25T07:36:28Z</time>
      </trkpt>
      <trkpt lat="42.65926" lon="1.70634">
        <ele>1569.01</ele>
        <time>2017-06-25T07:36:37Z</time>
      </trkpt>
      <trkpt lat="42.65917" lon="1.70628">
        <ele>1569.97</ele>
        <time>2017-06-25T07:36:44Z</time>
      </trkpt>
      <trkpt lat="42.65908" lon="1.70635">
        <ele>1569.97</ele>
        <time>2017-06-25T07:36:54Z</time>
      </trkpt>
      <trkpt lat="42.65894" lon="1.70629">
        <ele>1571.89</ele>
        <time>2017-06-25T07:37:09Z</time>
      </trkpt>
      <trkpt lat="42.6589" lon="1.70629">
        <ele>1571.89</ele>
        <time>2017-06-25T07:37:12Z</time>
      </trkpt>
      <trkpt lat="42.65879" lon="1.70633">
        <ele>1573.82</ele>
        <time>2017-06-25T07:37:24Z</time>
      </trkpt>
      <trkpt lat="42.65866" lon="1.7064">
        <ele>1573.82</ele>
        <time>2017-06-25T07:37:36Z</time>
      </trkpt>
      <trkpt lat="42.65854" lon="1.7064">
        <ele>1574.78</ele>
        <time>2017-06-25T07:37:48Z</time>
      </trkpt>
      <trkpt lat="42.65839" lon="1.70633">
        <ele>1577.18</ele>
        <time>2017-06-25T07:38:02Z</time>
      </trkpt>
      <trkpt lat="42.65832" lon="1.70628">
        <ele>1578.14</ele>
        <time>2017-06-25T07:38:10Z</time>
      </trkpt>
      <trkpt lat="42.65825" lon="1.70628">
        <ele>1578.14</ele>
        <time>2017-06-25T07:38:15Z</time>
      </trkpt>
      <trkpt lat="42.65818" lon="1.70631">
        <ele>1579.1</ele>
        <time>2017-06-25T07:38:21Z</time>
      </trkpt>
      <trkpt lat="42.65802" lon="1.70638">
        <ele>1579.1</ele>
        <time>2017-06-25T07:38:35Z</time>
      </trkpt>
      <trkpt lat="42.65792" lon="1.70643">
        <ele>1579.1</ele>
        <time>2017-06-25T07:38:43Z</time>
      </trkpt>
      <trkpt lat="42.65778" lon="1.70696">
        <ele>1580.06</ele>
        <time>2017-06-25T07:38:56Z</time>
      </trkpt>
      <trkpt lat="42.65775" lon="1.70703">
        <ele>1580.06</ele>
        <time>2017-06-25T07:38:59Z</time>
      </trkpt>
      <trkpt lat="42.6575" lon="1.70706">
        <ele>1581.99</ele>
        <time>2017-06-25T07:39:21Z</time>
      </trkpt>
      <trkpt lat="42.6574" lon="1.70705">
        <ele>1582.95</ele>
        <time>2017-06-25T07:39:30Z</time>
      </trkpt>
      <trkpt lat="42.65727" lon="1.70694">
        <ele>1582.95</ele>
        <time>2017-06-25T07:39:38Z</time>
      </trkpt>
      <trkpt lat="42.65724" lon="1.70692">
        <ele>1583.91</ele>
        <time>2017-06-25T07:39:40Z</time>
      </trkpt>
      <trkpt lat="42.65711" lon="1.70677">
        <ele>1585.83</ele>
        <time>2017-06-25T07:39:56Z</time>
      </trkpt>
      <trkpt lat="42.6571" lon="1.70677">
        <ele>1585.83</ele>
        <time>2017-06-25T07:40:12Z</time>
      </trkpt>
      <trkpt lat="42.65686" lon="1.70669">
        <ele>1586.79</ele>
        <time>2017-06-25T07:40:22Z</time>
      </trkpt>
      <trkpt lat="42.65649" lon="1.70667">
        <ele>1590.16</ele>
        <time>2017-06-25T07:40:34Z</time>
      </trkpt>
      <trkpt lat="42.65619" lon="1.70661">
        <ele>1593.04</ele>
        <time>2017-06-25T07:40:46Z</time>
      </trkpt>
      <trkpt lat="42.65583" lon="1.70632">
        <ele>1595.93</ele>
        <time>2017-06-25T07:40:59Z</time>
      </trkpt>
      <trkpt lat="42.65559" lon="1.70629">
        <ele>1598.81</ele>
        <time>2017-06-25T07:41:08Z</time>
      </trkpt>
      <trkpt lat="42.65534" lon="1.70622">
        <ele>1602.17</ele>
        <time>2017-06-25T07:41:18Z</time>
      </trkpt>
      <trkpt lat="42.65509" lon="1.70621">
        <ele>1605.06</ele>
        <time>2017-06-25T07:41:25Z</time>
      </trkpt>
      <trkpt lat="42.65472" lon="1.70631">
        <ele>1607.94</ele>
        <time>2017-06-25T07:41:35Z</time>
      </trkpt>
      <trkpt lat="42.65467" lon="1.70629">
        <ele>1608.9</ele>
        <time>2017-06-25T07:41:37Z</time>
      </trkpt>
      <trkpt lat="42.65465" lon="1.70627">
        <ele>1608.9</ele>
        <time>2017-06-25T07:41:38Z</time>
      </trkpt>
      <trkpt lat="42.65437" lon="1.70599">
        <ele>1608.9</ele>
        <time>2017-06-25T07:41:51Z</time>
      </trkpt>
      <trkpt lat="42.65416" lon="1.70571">
        <ele>1611.79</ele>
        <time>2017-06-25T07:42:02Z</time>
      </trkpt>
      <trkpt lat="42.654" lon="1.70548">
        <ele>1615.15</ele>
        <time>2017-06-25T07:42:13Z</time>
      </trkpt>
      <trkpt lat="42.65381" lon="1.70535">
        <ele>1617.07</ele>
        <time>2017-06-25T07:42:19Z</time>
      </trkpt>
      <trkpt lat="42.65344" lon="1.70517">
        <ele>1619.96</ele>
        <time>2017-06-25T07:42:28Z</time>
      </trkpt>
      <trkpt lat="42.65341" lon="1.70513">
        <ele>1620.92</ele>
        <time>2017-06-25T07:42:29Z</time>
      </trkpt>
      <trkpt lat="42.65331" lon="1.70502">
        <ele>1622.84</ele>
        <time>2017-06-25T07:42:32Z</time>
      </trkpt>
      <trkpt lat="42.65327" lon="1.70498">
        <ele>1622.84</ele>
        <time>2017-06-25T07:42:33Z</time>
      </trkpt>
      <trkpt lat="42.65324" lon="1.70493">
        <ele>1622.84</ele>
        <time>2017-06-25T07:42:34Z</time>
      </trkpt>
      <trkpt lat="42.65304" lon="1.70469">
        <ele>1627.17</ele>
        <time>2017-06-25T07:42:40Z</time>
      </trkpt>
      <trkpt lat="42.65285" lon="1.70457">
        <ele>1629.09</ele>
        <time>2017-06-25T07:42:44Z</time>
      </trkpt>
      <trkpt lat="42.65281" lon="1.70453">
        <ele>1630.05</ele>
        <time>2017-06-25T07:42:45Z</time>
      </trkpt>
      <trkpt lat="42.65259" lon="1.70424">
        <ele>1632.94</ele>
        <time>2017-06-25T07:42:50Z</time>
      </trkpt>
      <trkpt lat="42.65254" lon="1.70417">
        <ele>1633.9</ele>
        <time>2017-06-25T07:42:51Z</time>
      </trkpt>
      <trkpt lat="42.6525" lon="1.70415">
        <ele>1634.86</ele>
        <time>2017-06-25T07:42:52Z</time>
      </trkpt>
      <trkpt lat="42.65241" lon="1.70409">
        <ele>1635.82</ele>
        <time>2017-06-25T07:42:54Z</time>
      </trkpt>
      <trkpt lat="42.65237" lon="1.70405">
        <ele>1636.78</ele>
        <time>2017-06-25T07:42:55Z</time>
      </trkpt>
      <trkpt lat="42.65233" lon="1.70403">
        <ele>1638.22</ele>
        <time>2017-06-25T07:42:56Z</time>
      </trkpt>
      <trkpt lat="42.65219" lon="1.70394">
        <ele>1642.07</ele>
        <time>2017-06-25T07:43:00Z</time>
      </trkpt>
      <trkpt lat="42.65213" lon="1.70392">
        <ele>1643.03</ele>
        <time>2017-06-25T07:43:02Z</time>
      </trkpt>
      <trkpt lat="42.65197" lon="1.70379">
        <ele>1645.91</ele>
        <time>2017-06-25T07:43:08Z</time>
      </trkpt>
      <trkpt lat="42.65171" lon="1.70359">
        <ele>1648.8</ele>
        <time>2017-06-25T07:43:17Z</time>
      </trkpt>
      <trkpt lat="42.65116" lon="1.70346">
        <ele>1651.2</ele>
        <time>2017-06-25T07:43:31Z</time>
      </trkpt>
      <trkpt lat="42.65082" lon="1.70331">
        <ele>1653.12</ele>
        <time>2017-06-25T07:43:42Z</time>
      </trkpt>
      <trkpt lat="42.65051" lon="1.70349">
        <ele>1653.12</ele>
        <time>2017-06-25T07:43:51Z</time>
      </trkpt>
      <trkpt lat="42.64989" lon="1.70354">
        <ele>1654.09</ele>
        <time>2017-06-25T07:44:06Z</time>
      </trkpt>
      <trkpt lat="42.64961" lon="1.70346">
        <ele>1656.01</ele>
        <time>2017-06-25T07:44:16Z</time>
      </trkpt>
      <trkpt lat="42.64943" lon="1.7032">
        <ele>1656.01</ele>
        <time>2017-06-25T07:44:43Z</time>
      </trkpt>
      <trkpt lat="42.64948" lon="1.7033">
        <ele>1656.01</ele>
        <time>2017-06-25T07:45:04Z</time>
      </trkpt>
      <trkpt lat="42.64949" lon="1.7033">
        <ele>1656.01</ele>
        <time>2017-06-25T07:45:05Z</time>
      </trkpt>
      <trkpt lat="42.64955" lon="1.70332">
        <ele>1656.01</ele>
        <time>2017-06-25T07:45:16Z</time>
      </trkpt>
      <trkpt lat="42.64958" lon="1.70334">
        <ele>1656.01</ele>
        <time>2017-06-25T07:45:19Z</time>
      </trkpt>
      <trkpt lat="42.64963" lon="1.70335">
        <ele>1655.05</ele>
        <time>2017-06-25T07:45:26Z</time>
      </trkpt>
      <trkpt lat="42.64964" lon="1.70337">
        <ele>1655.05</ele>
        <time>2017-06-25T07:45:27Z</time>
      </trkpt>
      <trkpt lat="42.64965" lon="1.70338">
        <ele>1655.05</ele>
        <time>2017-06-25T07:45:28Z</time>
      </trkpt>
      <trkpt lat="42.64966" lon="1.70339">
        <ele>1655.05</ele>
        <time>2017-06-25T07:45:29Z</time>
      </trkpt>
      <trkpt lat="42.64972" lon="1.7034">
        <ele>1655.05</ele>
        <time>2017-06-25T07:45:34Z</time>
      </trkpt>
      <trkpt lat="42.64973" lon="1.70339">
        <ele>1655.05</ele>
        <time>2017-06-25T07:45:35Z</time>
      </trkpt>
      <trkpt lat="42.64974" lon="1.70339">
        <ele>1655.05</ele>
        <time>2017-06-25T07:45:36Z</time>
      </trkpt>
      <trkpt lat="42.64976" lon="1.7034">
        <ele>1654.09</ele>
        <time>2017-06-25T07:45:37Z</time>
      </trkpt>
      <trkpt lat="42.64977" lon="1.7034">
        <ele>1654.09</ele>
        <time>2017-06-25T07:45:38Z</time>
      </trkpt>
      <trkpt lat="42.6498" lon="1.70339">
        <ele>1654.09</ele>
        <time>2017-06-25T07:45:40Z</time>
      </trkpt>
      <trkpt lat="42.65003" lon="1.70334">
        <ele>1654.09</ele>
        <time>2017-06-25T07:45:52Z</time>
      </trkpt>
      <trkpt lat="42.65022" lon="1.70329">
        <ele>1653.12</ele>
        <time>2017-06-25T07:45:59Z</time>
      </trkpt>
      <trkpt lat="42.65029" lon="1.70326">
        <ele>1653.12</ele>
        <time>2017-06-25T07:46:02Z</time>
      </trkpt>
      <trkpt lat="42.65043" lon="1.70317">
        <ele>1653.12</ele>
        <time>2017-06-25T07:46:11Z</time>
      </trkpt>
      <trkpt lat="42.65043" lon="1.70315">
        <ele>1653.12</ele>
        <time>2017-06-25T07:46:21Z</time>
      </trkpt>
      <trkpt lat="42.65047" lon="1.70311">
        <ele>1653.12</ele>
        <time>2017-06-25T07:46:32Z</time>
      </trkpt>
      <trkpt lat="42.65048" lon="1.70317">
        <ele>1653.12</ele>
        <time>2017-06-25T07:46:37Z</time>
      </trkpt>
      <trkpt lat="42.65051" lon="1.70322">
        <ele>1653.12</ele>
        <time>2017-06-25T07:46:44Z</time>
      </trkpt>
      <trkpt lat="42.65063" lon="1.70316">
        <ele>1653.12</ele>
        <time>2017-06-25T07:46:48Z</time>
      </trkpt>
      <trkpt lat="42.65081" lon="1.70319">
        <ele>1653.12</ele>
        <time>2017-06-25T07:47:06Z</time>
      </trkpt>
      <trkpt lat="42.65095" lon="1.70327">
        <ele>1652.16</ele>
        <time>2017-06-25T07:47:26Z</time>
      </trkpt>
      <trkpt lat="42.65099" lon="1.70328">
        <ele>1652.16</ele>
        <time>2017-06-25T07:47:36Z</time>
      </trkpt>
      <trkpt lat="42.65097" lon="1.7034">
        <ele>1652.16</ele>
        <time>2017-06-25T07:47:56Z</time>
      </trkpt>
      <trkpt lat="42.65096" lon="1.70343">
        <ele>1652.16</ele>
        <time>2017-06-25T07:47:59Z</time>
      </trkpt>
      <trkpt lat="42.65092" lon="1.7036">
        <ele>1652.16</ele>
        <time>2017-06-25T07:48:25Z</time>
      </trkpt>
      <trkpt lat="42.65092" lon="1.70361">
        <ele>1652.16</ele>
        <time>2017-06-25T07:48:31Z</time>
      </trkpt>
      <trkpt lat="42.65088" lon="1.70362">
        <ele>1652.16</ele>
        <time>2017-06-25T07:48:44Z</time>
      </trkpt>
      <trkpt lat="42.65088" lon="1.70363">
        <ele>1651.2</ele>
        <time>2017-06-25T07:48:50Z</time>
      </trkpt>
      <trkpt lat="42.65085" lon="1.70363">
        <ele>1652.16</ele>
        <time>2017-06-25T07:49:11Z</time>
      </trkpt>
      <trkpt lat="42.65074" lon="1.70356">
        <ele>1652.16</ele>
        <time>2017-06-25T07:49:25Z</time>
      </trkpt>
      <trkpt lat="42.65071" lon="1.70356">
        <ele>1653.12</ele>
        <time>2017-06-25T07:49:27Z</time>
      </trkpt>
      <trkpt lat="42.65069" lon="1.70356">
        <ele>1653.12</ele>
        <time>2017-06-25T07:49:29Z</time>
      </trkpt>
      <trkpt lat="42.65053" lon="1.70357">
        <ele>1652.16</ele>
        <time>2017-06-25T07:49:44Z</time>
      </trkpt>
      <trkpt lat="42.65048" lon="1.70358">
        <ele>1652.16</ele>
        <time>2017-06-25T07:49:49Z</time>
      </trkpt>
      <trkpt lat="42.65033" lon="1.70366">
        <ele>1652.16</ele>
        <time>2017-06-25T07:50:06Z</time>
      </trkpt>
      <trkpt lat="42.65018" lon="1.70369">
        <ele>1652.16</ele>
        <time>2017-06-25T07:50:22Z</time>
      </trkpt>
      <trkpt lat="42.65002" lon="1.70371">
        <ele>1653.12</ele>
        <time>2017-06-25T07:50:37Z</time>
      </trkpt>
      <trkpt lat="42.64981" lon="1.70365">
        <ele>1653.12</ele>
        <time>2017-06-25T07:50:55Z</time>
      </trkpt>
      <trkpt lat="42.64962" lon="1.7036">
        <ele>1654.09</ele>
        <time>2017-06-25T07:51:12Z</time>
      </trkpt>
      <trkpt lat="42.64954" lon="1.70359">
        <ele>1655.05</ele>
        <time>2017-06-25T07:51:32Z</time>
      </trkpt>
      <trkpt lat="42.64938" lon="1.70357">
        <ele>1655.05</ele>
        <time>2017-06-25T07:51:45Z</time>
      </trkpt>
      <trkpt lat="42.64929" lon="1.70358">
        <ele>1656.01</ele>
        <time>2017-06-25T07:51:53Z</time>
      </trkpt>
      <trkpt lat="42.64929" lon="1.70355">
        <ele>1656.01</ele>
        <time>2017-06-25T07:52:05Z</time>
      </trkpt>
      <trkpt lat="42.64931" lon="1.70354">
        <ele>1656.01</ele>
        <time>2017-06-25T07:52:09Z</time>
      </trkpt>
      <trkpt lat="42.64929" lon="1.70348">
        <ele>1656.01</ele>
        <time>2017-06-25T07:52:16Z</time>
      </trkpt>
      <trkpt lat="42.64916" lon="1.7034">
        <ele>1654.09</ele>
        <time>2017-06-25T07:52:32Z</time>
      </trkpt>
      <trkpt lat="42.64908" lon="1.7033">
        <ele>1654.09</ele>
        <time>2017-06-25T07:52:41Z</time>
      </trkpt>
      <trkpt lat="42.64901" lon="1.70328">
        <ele>1653.12</ele>
        <time>2017-06-25T07:52:48Z</time>
      </trkpt>
      <trkpt lat="42.64898" lon="1.7033">
        <ele>1653.12</ele>
        <time>2017-06-25T07:52:51Z</time>
      </trkpt>
      <trkpt lat="42.6489" lon="1.70335">
        <ele>1654.09</ele>
        <time>2017-06-25T07:53:00Z</time>
      </trkpt>
      <trkpt lat="42.64877" lon="1.70333">
        <ele>1654.09</ele>
        <time>2017-06-25T07:53:14Z</time>
      </trkpt>
      <trkpt lat="42.64876" lon="1.70332">
        <ele>1654.09</ele>
        <time>2017-06-25T07:53:15Z</time>
      </trkpt>
      <trkpt lat="42.64864" lon="1.70331">
        <ele>1654.09</ele>
        <time>2017-06-25T07:53:29Z</time>
      </trkpt>
      <trkpt lat="42.64862" lon="1.70331">
        <ele>1654.09</ele>
        <time>2017-06-25T07:53:32Z</time>
      </trkpt>
      <trkpt lat="42.64858" lon="1.7033">
        <ele>1654.09</ele>
        <time>2017-06-25T07:53:36Z</time>
      </trkpt>
      <trkpt lat="42.6484" lon="1.70327">
        <ele>1654.09</ele>
        <time>2017-06-25T07:53:53Z</time>
      </trkpt>
      <trkpt lat="42.64825" lon="1.70324">
        <ele>1654.09</ele>
        <time>2017-06-25T07:54:07Z</time>
      </trkpt>
      <trkpt lat="42.64812" lon="1.7032">
        <ele>1655.05</ele>
        <time>2017-06-25T07:54:21Z</time>
      </trkpt>
      <trkpt lat="42.64809" lon="1.70319">
        <ele>1655.05</ele>
        <time>2017-06-25T07:54:27Z</time>
      </trkpt>
      <trkpt lat="42.64806" lon="1.70319">
        <ele>1655.05</ele>
        <time>2017-06-25T07:54:42Z</time>
      </trkpt>
      <trkpt lat="42.64803" lon="1.70319">
        <ele>1656.01</ele>
        <time>2017-06-25T07:54:51Z</time>
      </trkpt>
      <trkpt lat="42.64786" lon="1.7031">
        <ele>1656.01</ele>
        <time>2017-06-25T07:55:06Z</time>
      </trkpt>
      <trkpt lat="42.64774" lon="1.70308">
        <ele>1656.97</ele>
        <time>2017-06-25T07:55:20Z</time>
      </trkpt>
      <trkpt lat="42.64758" lon="1.70299">
        <ele>1657.93</ele>
        <time>2017-06-25T07:55:36Z</time>
      </trkpt>
      <trkpt lat="42.64751" lon="1.70297">
        <ele>1658.89</ele>
        <time>2017-06-25T07:55:52Z</time>
      </trkpt>
      <trkpt lat="42.64749" lon="1.70299">
        <ele>1658.89</ele>
        <time>2017-06-25T07:55:55Z</time>
      </trkpt>
      <trkpt lat="42.64736" lon="1.70297">
        <ele>1658.89</ele>
        <time>2017-06-25T07:56:09Z</time>
      </trkpt>
      <trkpt lat="42.64729" lon="1.70295">
        <ele>1659.85</ele>
        <time>2017-06-25T07:56:16Z</time>
      </trkpt>
      <trkpt lat="42.64716" lon="1.70295">
        <ele>1659.85</ele>
        <time>2017-06-25T07:56:29Z</time>
      </trkpt>
      <trkpt lat="42.64714" lon="1.70295">
        <ele>1659.85</ele>
        <time>2017-06-25T07:56:31Z</time>
      </trkpt>
      <trkpt lat="42.64699" lon="1.70296">
        <ele>1661.78</ele>
        <time>2017-06-25T07:56:47Z</time>
      </trkpt>
      <trkpt lat="42.6469" lon="1.70301">
        <ele>1663.22</ele>
        <time>2017-06-25T07:57:05Z</time>
      </trkpt>
      <trkpt lat="42.64685" lon="1.703">
        <ele>1665.14</ele>
        <time>2017-06-25T07:57:19Z</time>
      </trkpt>
      <trkpt lat="42.64681" lon="1.70299">
        <ele>1666.1</ele>
        <time>2017-06-25T07:57:36Z</time>
      </trkpt>
      <trkpt lat="42.64672" lon="1.70296">
        <ele>1668.99</ele>
        <time>2017-06-25T07:57:55Z</time>
      </trkpt>
      <trkpt lat="42.64662" lon="1.70298">
        <ele>1671.87</ele>
        <time>2017-06-25T07:58:15Z</time>
      </trkpt>
      <trkpt lat="42.64649" lon="1.70294">
        <ele>1673.79</ele>
        <time>2017-06-25T07:58:29Z</time>
      </trkpt>
      <trkpt lat="42.64633" lon="1.70289">
        <ele>1673.79</ele>
        <time>2017-06-25T07:58:46Z</time>
      </trkpt>
      <trkpt lat="42.64621" lon="1.70287">
        <ele>1675.23</ele>
        <time>2017-06-25T07:59:00Z</time>
      </trkpt>
      <trkpt lat="42.64603" lon="1.70289">
        <ele>1673.79</ele>
        <time>2017-06-25T07:59:20Z</time>
      </trkpt>
      <trkpt lat="42.64584" lon="1.70284">
        <ele>1675.23</ele>
        <time>2017-06-25T07:59:40Z</time>
      </trkpt>
      <trkpt lat="42.64572" lon="1.70277">
        <ele>1675.23</ele>
        <time>2017-06-25T07:59:56Z</time>
      </trkpt>
      <trkpt lat="42.6456" lon="1.70271">
        <ele>1672.83</ele>
        <time>2017-06-25T08:00:17Z</time>
      </trkpt>
      <trkpt lat="42.64549" lon="1.7027">
        <ele>1670.91</ele>
        <time>2017-06-25T08:00:32Z</time>
      </trkpt>
      <trkpt lat="42.64545" lon="1.70271">
        <ele>1670.91</ele>
        <time>2017-06-25T08:00:46Z</time>
      </trkpt>
      <trkpt lat="42.64539" lon="1.70267">
        <ele>1669.95</ele>
        <time>2017-06-25T08:01:02Z</time>
      </trkpt>
      <trkpt lat="42.64531" lon="1.70268">
        <ele>1669.95</ele>
        <time>2017-06-25T08:01:29Z</time>
      </trkpt>
      <trkpt lat="42.64523" lon="1.70268">
        <ele>1670.91</ele>
        <time>2017-06-25T08:01:47Z</time>
      </trkpt>
      <trkpt lat="42.64518" lon="1.70266">
        <ele>1670.91</ele>
        <time>2017-06-25T08:01:52Z</time>
      </trkpt>
      <trkpt lat="42.64507" lon="1.70266">
        <ele>1670.91</ele>
        <time>2017-06-25T08:02:07Z</time>
      </trkpt>
      <trkpt lat="42.64497" lon="1.70272">
        <ele>1671.87</ele>
        <time>2017-06-25T08:02:26Z</time>
      </trkpt>
      <trkpt lat="42.64493" lon="1.70271">
        <ele>1671.87</ele>
        <time>2017-06-25T08:02:31Z</time>
      </trkpt>
      <trkpt lat="42.64489" lon="1.7027">
        <ele>1671.87</ele>
        <time>2017-06-25T08:02:34Z</time>
      </trkpt>
      <trkpt lat="42.64479" lon="1.70275">
        <ele>1671.87</ele>
        <time>2017-06-25T08:02:48Z</time>
      </trkpt>
      <trkpt lat="42.64464" lon="1.70276">
        <ele>1672.83</ele>
        <time>2017-06-25T08:03:03Z</time>
      </trkpt>
      <trkpt lat="42.64449" lon="1.70274">
        <ele>1673.79</ele>
        <time>2017-06-25T08:03:19Z</time>
      </trkpt>
      <trkpt lat="42.64437" lon="1.70279">
        <ele>1673.79</ele>
        <time>2017-06-25T08:03:30Z</time>
      </trkpt>
      <trkpt lat="42.64429" lon="1.70281">
        <ele>1673.79</ele>
        <time>2017-06-25T08:03:38Z</time>
      </trkpt>
      <trkpt lat="42.64425" lon="1.70283">
        <ele>1673.79</ele>
        <time>2017-06-25T08:03:43Z</time>
      </trkpt>
      <trkpt lat="42.6442" lon="1.7029">
        <ele>1673.79</ele>
        <time>2017-06-25T08:03:50Z</time>
      </trkpt>
      <trkpt lat="42.64405" lon="1.70283">
        <ele>1675.23</ele>
        <time>2017-06-25T08:04:09Z</time>
      </trkpt>
      <trkpt lat="42.64395" lon="1.70285">
        <ele>1675.23</ele>
        <time>2017-06-25T08:04:23Z</time>
      </trkpt>
      <trkpt lat="42.64383" lon="1.70285">
        <ele>1676.2</ele>
        <time>2017-06-25T08:04:38Z</time>
      </trkpt>
      <trkpt lat="42.64367" lon="1.70283">
        <ele>1678.12</ele>
        <time>2017-06-25T08:04:58Z</time>
      </trkpt>
      <trkpt lat="42.64361" lon="1.70285">
        <ele>1680.04</ele>
        <time>2017-06-25T08:05:15Z</time>
      </trkpt>
      <trkpt lat="42.64359" lon="1.70287">
        <ele>1681</ele>
        <time>2017-06-25T08:05:38Z</time>
      </trkpt>
      <trkpt lat="42.64348" lon="1.70294">
        <ele>1681</ele>
        <time>2017-06-25T08:05:59Z</time>
      </trkpt>
      <trkpt lat="42.64339" lon="1.70297">
        <ele>1682.93</ele>
        <time>2017-06-25T08:06:15Z</time>
      </trkpt>
      <trkpt lat="42.64338" lon="1.70298">
        <ele>1683.89</ele>
        <time>2017-06-25T08:06:25Z</time>
      </trkpt>
      <trkpt lat="42.64338" lon="1.70297">
        <ele>1683.89</ele>
        <time>2017-06-25T08:06:44Z</time>
      </trkpt>
      <trkpt lat="42.64329" lon="1.70304">
        <ele>1684.85</ele>
        <time>2017-06-25T08:07:05Z</time>
      </trkpt>
      <trkpt lat="42.64319" lon="1.7031">
        <ele>1686.77</ele>
        <time>2017-06-25T08:07:25Z</time>
      </trkpt>
      <trkpt lat="42.6431" lon="1.70326">
        <ele>1688.21</ele>
        <time>2017-06-25T08:07:41Z</time>
      </trkpt>
      <trkpt lat="42.64304" lon="1.70322">
        <ele>1689.17</ele>
        <time>2017-06-25T08:08:03Z</time>
      </trkpt>
      <trkpt lat="42.64305" lon="1.70325">
        <ele>1690.14</ele>
        <time>2017-06-25T08:08:29Z</time>
      </trkpt>
      <trkpt lat="42.64304" lon="1.70321">
        <ele>1690.14</ele>
        <time>2017-06-25T08:09:11Z</time>
      </trkpt>
      <trkpt lat="42.64299" lon="1.7032">
        <ele>1690.14</ele>
        <time>2017-06-25T08:09:16Z</time>
      </trkpt>
      <trkpt lat="42.64286" lon="1.70322">
        <ele>1691.1</ele>
        <time>2017-06-25T08:09:33Z</time>
      </trkpt>
      <trkpt lat="42.64278" lon="1.70323">
        <ele>1693.02</ele>
        <time>2017-06-25T08:09:47Z</time>
      </trkpt>
      <trkpt lat="42.64271" lon="1.70326">
        <ele>1694.94</ele>
        <time>2017-06-25T08:10:05Z</time>
      </trkpt>
      <trkpt lat="42.64257" lon="1.70328">
        <ele>1695.9</ele>
        <time>2017-06-25T08:10:20Z</time>
      </trkpt>
      <trkpt lat="42.64247" lon="1.70335">
        <ele>1697.83</ele>
        <time>2017-06-25T08:10:38Z</time>
      </trkpt>
      <trkpt lat="42.64238" lon="1.70341">
        <ele>1701.19</ele>
        <time>2017-06-25T08:10:51Z</time>
      </trkpt>
      <trkpt lat="42.64227" lon="1.70347">
        <ele>1703.11</ele>
        <time>2017-06-25T08:11:06Z</time>
      </trkpt>
      <trkpt lat="42.64216" lon="1.70362">
        <ele>1706</ele>
        <time>2017-06-25T08:11:31Z</time>
      </trkpt>
      <trkpt lat="42.64214" lon="1.70365">
        <ele>1706.96</ele>
        <time>2017-06-25T08:11:48Z</time>
      </trkpt>
      <trkpt lat="42.64215" lon="1.70363">
        <ele>1707.92</ele>
        <time>2017-06-25T08:12:25Z</time>
      </trkpt>
      <trkpt lat="42.64206" lon="1.70374">
        <ele>1707.92</ele>
        <time>2017-06-25T08:12:49Z</time>
      </trkpt>
      <trkpt lat="42.64202" lon="1.70384">
        <ele>1710.8</ele>
        <time>2017-06-25T08:13:06Z</time>
      </trkpt>
      <trkpt lat="42.64196" lon="1.70397">
        <ele>1713.21</ele>
        <time>2017-06-25T08:13:25Z</time>
      </trkpt>
      <trkpt lat="42.64187" lon="1.70412">
        <ele>1716.09</ele>
        <time>2017-06-25T08:13:45Z</time>
      </trkpt>
      <trkpt lat="42.64176" lon="1.70417">
        <ele>1718.97</ele>
        <time>2017-06-25T08:14:05Z</time>
      </trkpt>
      <trkpt lat="42.64179" lon="1.70426">
        <ele>1721.86</ele>
        <time>2017-06-25T08:14:21Z</time>
      </trkpt>
      <trkpt lat="42.64181" lon="1.7043">
        <ele>1725.22</ele>
        <time>2017-06-25T08:14:37Z</time>
      </trkpt>
      <trkpt lat="42.64175" lon="1.70441">
        <ele>1728.11</ele>
        <time>2017-06-25T08:15:05Z</time>
      </trkpt>
      <trkpt lat="42.64176" lon="1.7045">
        <ele>1730.99</ele>
        <time>2017-06-25T08:15:24Z</time>
      </trkpt>
      <trkpt lat="42.64171" lon="1.70462">
        <ele>1732.91</ele>
        <time>2017-06-25T08:15:46Z</time>
      </trkpt>
      <trkpt lat="42.64173" lon="1.70467">
        <ele>1734.84</ele>
        <time>2017-06-25T08:16:01Z</time>
      </trkpt>
      <trkpt lat="42.64179" lon="1.70472">
        <ele>1737.24</ele>
        <time>2017-06-25T08:16:20Z</time>
      </trkpt>
      <trkpt lat="42.64179" lon="1.70476">
        <ele>1739.16</ele>
        <time>2017-06-25T08:16:36Z</time>
      </trkpt>
      <trkpt lat="42.64174" lon="1.70473">
        <ele>1740.12</ele>
        <time>2017-06-25T08:16:53Z</time>
      </trkpt>
      <trkpt lat="42.6417" lon="1.70481">
        <ele>1740.12</ele>
        <time>2017-06-25T08:17:16Z</time>
      </trkpt>
      <trkpt lat="42.64168" lon="1.70484">
        <ele>1741.08</ele>
        <time>2017-06-25T08:17:35Z</time>
      </trkpt>
      <trkpt lat="42.64168" lon="1.70479">
        <ele>1742.05</ele>
        <time>2017-06-25T08:18:12Z</time>
      </trkpt>
      <trkpt lat="42.64168" lon="1.70482">
        <ele>1742.05</ele>
        <time>2017-06-25T08:18:19Z</time>
      </trkpt>
      <trkpt lat="42.64162" lon="1.70498">
        <ele>1742.05</ele>
        <time>2017-06-25T08:18:37Z</time>
      </trkpt>
      <trkpt lat="42.64155" lon="1.70508">
        <ele>1744.93</ele>
        <time>2017-06-25T08:18:56Z</time>
      </trkpt>
      <trkpt lat="42.6415" lon="1.70514">
        <ele>1747.81</ele>
        <time>2017-06-25T08:19:15Z</time>
      </trkpt>
      <trkpt lat="42.64143" lon="1.70521">
        <ele>1751.18</ele>
        <time>2017-06-25T08:19:34Z</time>
      </trkpt>
      <trkpt lat="42.64138" lon="1.70527">
        <ele>1753.1</ele>
        <time>2017-06-25T08:19:51Z</time>
      </trkpt>
      <trkpt lat="42.64134" lon="1.70539">
        <ele>1755.02</ele>
        <time>2017-06-25T08:20:09Z</time>
      </trkpt>
      <trkpt lat="42.6413" lon="1.70547">
        <ele>1757.91</ele>
        <time>2017-06-25T08:20:31Z</time>
      </trkpt>
      <trkpt lat="42.64126" lon="1.70555">
        <ele>1758.87</ele>
        <time>2017-06-25T08:20:48Z</time>
      </trkpt>
      <trkpt lat="42.64123" lon="1.70566">
        <ele>1760.79</ele>
        <time>2017-06-25T08:21:03Z</time>
      </trkpt>
      <trkpt lat="42.64119" lon="1.70579">
        <ele>1763.2</ele>
        <time>2017-06-25T08:21:21Z</time>
      </trkpt>
      <trkpt lat="42.64118" lon="1.70588">
        <ele>1765.12</ele>
        <time>2017-06-25T08:21:39Z</time>
      </trkpt>
      <trkpt lat="42.64117" lon="1.70595">
        <ele>1767.04</ele>
        <time>2017-06-25T08:21:58Z</time>
      </trkpt>
      <trkpt lat="42.64117" lon="1.70598">
        <ele>1768</ele>
        <time>2017-06-25T08:22:27Z</time>
      </trkpt>
      <trkpt lat="42.64114" lon="1.70605">
        <ele>1768.96</ele>
        <time>2017-06-25T08:22:44Z</time>
      </trkpt>
      <trkpt lat="42.64111" lon="1.70612">
        <ele>1770.89</ele>
        <time>2017-06-25T08:23:01Z</time>
      </trkpt>
      <trkpt lat="42.64107" lon="1.70618">
        <ele>1772.81</ele>
        <time>2017-06-25T08:23:19Z</time>
      </trkpt>
      <trkpt lat="42.64104" lon="1.70629">
        <ele>1772.81</ele>
        <time>2017-06-25T08:23:33Z</time>
      </trkpt>
      <trkpt lat="42.64103" lon="1.70629">
        <ele>1773.77</ele>
        <time>2017-06-25T08:23:55Z</time>
      </trkpt>
      <trkpt lat="42.64103" lon="1.7063">
        <ele>1775.21</ele>
        <time>2017-06-25T08:24:26Z</time>
      </trkpt>
      <trkpt lat="42.64102" lon="1.70634">
        <ele>1775.21</ele>
        <time>2017-06-25T08:24:55Z</time>
      </trkpt>
      <trkpt lat="42.64098" lon="1.70639">
        <ele>1775.21</ele>
        <time>2017-06-25T08:25:13Z</time>
      </trkpt>
      <trkpt lat="42.64097" lon="1.70646">
        <ele>1776.17</ele>
        <time>2017-06-25T08:25:27Z</time>
      </trkpt>
      <trkpt lat="42.64095" lon="1.70658">
        <ele>1778.1</ele>
        <time>2017-06-25T08:25:45Z</time>
      </trkpt>
      <trkpt lat="42.64092" lon="1.70665">
        <ele>1779.06</ele>
        <time>2017-06-25T08:25:55Z</time>
      </trkpt>
      <trkpt lat="42.6409" lon="1.70668">
        <ele>1780.02</ele>
        <time>2017-06-25T08:26:03Z</time>
      </trkpt>
      <trkpt lat="42.64089" lon="1.70678">
        <ele>1780.98</ele>
        <time>2017-06-25T08:26:16Z</time>
      </trkpt>
      <trkpt lat="42.64088" lon="1.70689">
        <ele>1781.94</ele>
        <time>2017-06-25T08:26:31Z</time>
      </trkpt>
      <trkpt lat="42.64084" lon="1.70704">
        <ele>1784.82</ele>
        <time>2017-06-25T08:26:51Z</time>
      </trkpt>
      <trkpt lat="42.64079" lon="1.70717">
        <ele>1787.23</ele>
        <time>2017-06-25T08:27:11Z</time>
      </trkpt>
      <trkpt lat="42.64074" lon="1.70723">
        <ele>1788.19</ele>
        <time>2017-06-25T08:27:29Z</time>
      </trkpt>
      <trkpt lat="42.64071" lon="1.70732">
        <ele>1790.11</ele>
        <time>2017-06-25T08:27:45Z</time>
      </trkpt>
      <trkpt lat="42.6407" lon="1.70737">
        <ele>1791.07</ele>
        <time>2017-06-25T08:27:59Z</time>
      </trkpt>
      <trkpt lat="42.64069" lon="1.70737">
        <ele>1791.07</ele>
        <time>2017-06-25T08:28:18Z</time>
      </trkpt>
      <trkpt lat="42.64071" lon="1.70738">
        <ele>1791.07</ele>
        <time>2017-06-25T08:28:43Z</time>
      </trkpt>
      <trkpt lat="42.64071" lon="1.70739">
        <ele>1791.07</ele>
        <time>2017-06-25T08:29:27Z</time>
      </trkpt>
      <trkpt lat="42.64072" lon="1.70737">
        <ele>1791.07</ele>
        <time>2017-06-25T08:29:57Z</time>
      </trkpt>
      <trkpt lat="42.6407" lon="1.70734">
        <ele>1791.07</ele>
        <time>2017-06-25T08:30:19Z</time>
      </trkpt>
      <trkpt lat="42.64074" lon="1.70732">
        <ele>1791.07</ele>
        <time>2017-06-25T08:31:12Z</time>
      </trkpt>
      <trkpt lat="42.64071" lon="1.70742">
        <ele>1791.07</ele>
        <time>2017-06-25T08:31:34Z</time>
      </trkpt>
      <trkpt lat="42.64074" lon="1.70752">
        <ele>1792.03</ele>
        <time>2017-06-25T08:31:51Z</time>
      </trkpt>
      <trkpt lat="42.64078" lon="1.70769">
        <ele>1793.96</ele>
        <time>2017-06-25T08:32:11Z</time>
      </trkpt>
      <trkpt lat="42.64076" lon="1.70781">
        <ele>1795.88</ele>
        <time>2017-06-25T08:32:28Z</time>
      </trkpt>
      <trkpt lat="42.64077" lon="1.70787">
        <ele>1797.8</ele>
        <time>2017-06-25T08:32:41Z</time>
      </trkpt>
      <trkpt lat="42.6408" lon="1.70797">
        <ele>1801.17</ele>
        <time>2017-06-25T08:32:58Z</time>
      </trkpt>
      <trkpt lat="42.64082" lon="1.70807">
        <ele>1804.05</ele>
        <time>2017-06-25T08:33:17Z</time>
      </trkpt>
      <trkpt lat="42.64086" lon="1.70822">
        <ele>1806.94</ele>
        <time>2017-06-25T08:33:39Z</time>
      </trkpt>
      <trkpt lat="42.64087" lon="1.70834">
        <ele>1808.86</ele>
        <time>2017-06-25T08:34:01Z</time>
      </trkpt>
      <trkpt lat="42.64086" lon="1.7085">
        <ele>1812.22</ele>
        <time>2017-06-25T08:34:18Z</time>
      </trkpt>
      <trkpt lat="42.6409" lon="1.70867">
        <ele>1813.18</ele>
        <time>2017-06-25T08:34:37Z</time>
      </trkpt>
      <trkpt lat="42.64097" lon="1.70882">
        <ele>1816.07</ele>
        <time>2017-06-25T08:34:58Z</time>
      </trkpt>
      <trkpt lat="42.64101" lon="1.70901">
        <ele>1817.99</ele>
        <time>2017-06-25T08:35:16Z</time>
      </trkpt>
      <trkpt lat="42.64101" lon="1.70919">
        <ele>1819.91</ele>
        <time>2017-06-25T08:35:35Z</time>
      </trkpt>
      <trkpt lat="42.64099" lon="1.70934">
        <ele>1821.84</ele>
        <time>2017-06-25T08:35:52Z</time>
      </trkpt>
      <trkpt lat="42.641" lon="1.70958">
        <ele>1824.24</ele>
        <time>2017-06-25T08:36:14Z</time>
      </trkpt>
      <trkpt lat="42.64103" lon="1.70977">
        <ele>1826.16</ele>
        <time>2017-06-25T08:36:33Z</time>
      </trkpt>
      <trkpt lat="42.6411" lon="1.70991">
        <ele>1829.05</ele>
        <time>2017-06-25T08:36:54Z</time>
      </trkpt>
      <trkpt lat="42.64114" lon="1.71006">
        <ele>1831.93</ele>
        <time>2017-06-25T08:37:16Z</time>
      </trkpt>
      <trkpt lat="42.64117" lon="1.71018">
        <ele>1833.85</ele>
        <time>2017-06-25T08:37:31Z</time>
      </trkpt>
      <trkpt lat="42.64122" lon="1.71027">
        <ele>1834.81</ele>
        <time>2017-06-25T08:37:47Z</time>
      </trkpt>
      <trkpt lat="42.64128" lon="1.71036">
        <ele>1838.18</ele>
        <time>2017-06-25T08:38:02Z</time>
      </trkpt>
      <trkpt lat="42.64139" lon="1.7105">
        <ele>1840.1</ele>
        <time>2017-06-25T08:38:22Z</time>
      </trkpt>
      <trkpt lat="42.64139" lon="1.71053">
        <ele>1840.1</ele>
        <time>2017-06-25T08:38:25Z</time>
      </trkpt>
      <trkpt lat="42.64139" lon="1.71063">
        <ele>1841.06</ele>
        <time>2017-06-25T08:38:34Z</time>
      </trkpt>
      <trkpt lat="42.64139" lon="1.71079">
        <ele>1842.02</ele>
        <time>2017-06-25T08:38:49Z</time>
      </trkpt>
      <trkpt lat="42.64139" lon="1.71083">
        <ele>1842.02</ele>
        <time>2017-06-25T08:38:52Z</time>
      </trkpt>
      <trkpt lat="42.64145" lon="1.71099">
        <ele>1842.98</ele>
        <time>2017-06-25T08:39:05Z</time>
      </trkpt>
      <trkpt lat="42.6415" lon="1.71115">
        <ele>1843.95</ele>
        <time>2017-06-25T08:39:19Z</time>
      </trkpt>
      <trkpt lat="42.64151" lon="1.71125">
        <ele>1843.95</ele>
        <time>2017-06-25T08:39:28Z</time>
      </trkpt>
      <trkpt lat="42.64158" lon="1.71136">
        <ele>1844.91</ele>
        <time>2017-06-25T08:39:41Z</time>
      </trkpt>
      <trkpt lat="42.64158" lon="1.71141">
        <ele>1844.91</ele>
        <time>2017-06-25T08:39:45Z</time>
      </trkpt>
      <trkpt lat="42.64159" lon="1.71151">
        <ele>1845.87</ele>
        <time>2017-06-25T08:39:53Z</time>
      </trkpt>
      <trkpt lat="42.64162" lon="1.71165">
        <ele>1847.79</ele>
        <time>2017-06-25T08:40:07Z</time>
      </trkpt>
      <trkpt lat="42.64163" lon="1.71177">
        <ele>1847.79</ele>
        <time>2017-06-25T08:40:16Z</time>
      </trkpt>
      <trkpt lat="42.64165" lon="1.7118">
        <ele>1849.23</ele>
        <time>2017-06-25T08:40:21Z</time>
      </trkpt>
      <trkpt lat="42.64165" lon="1.71184">
        <ele>1849.23</ele>
        <time>2017-06-25T08:40:24Z</time>
      </trkpt>
      <trkpt lat="42.64174" lon="1.71194">
        <ele>1850.19</ele>
        <time>2017-06-25T08:40:39Z</time>
      </trkpt>
      <trkpt lat="42.64185" lon="1.71208">
        <ele>1852.12</ele>
        <time>2017-06-25T08:40:58Z</time>
      </trkpt>
      <trkpt lat="42.64197" lon="1.71219">
        <ele>1854.04</ele>
        <time>2017-06-25T08:41:17Z</time>
      </trkpt>
      <trkpt lat="42.64197" lon="1.71213">
        <ele>1855.96</ele>
        <time>2017-06-25T08:41:40Z</time>
      </trkpt>
      <trkpt lat="42.64202" lon="1.71227">
        <ele>1855.96</ele>
        <time>2017-06-25T08:41:56Z</time>
      </trkpt>
      <trkpt lat="42.64209" lon="1.71239">
        <ele>1858.85</ele>
        <time>2017-06-25T08:42:14Z</time>
      </trkpt>
      <trkpt lat="42.64216" lon="1.71249">
        <ele>1862.21</ele>
        <time>2017-06-25T08:42:30Z</time>
      </trkpt>
      <trkpt lat="42.64221" lon="1.71259">
        <ele>1864.13</ele>
        <time>2017-06-25T08:42:47Z</time>
      </trkpt>
      <trkpt lat="42.64226" lon="1.71267">
        <ele>1867.02</ele>
        <time>2017-06-25T08:43:03Z</time>
      </trkpt>
      <trkpt lat="42.6423" lon="1.71275">
        <ele>1869.9</ele>
        <time>2017-06-25T08:43:19Z</time>
      </trkpt>
      <trkpt lat="42.64235" lon="1.71282">
        <ele>1872.79</ele>
        <time>2017-06-25T08:43:35Z</time>
      </trkpt>
      <trkpt lat="42.64238" lon="1.71294">
        <ele>1876.15</ele>
        <time>2017-06-25T08:43:53Z</time>
      </trkpt>
      <trkpt lat="42.64237" lon="1.71305">
        <ele>1878.07</ele>
        <time>2017-06-25T08:44:11Z</time>
      </trkpt>
      <trkpt lat="42.64236" lon="1.71312">
        <ele>1880</ele>
        <time>2017-06-25T08:44:26Z</time>
      </trkpt>
      <trkpt lat="42.64241" lon="1.71323">
        <ele>1882.88</ele>
        <time>2017-06-25T08:44:45Z</time>
      </trkpt>
      <trkpt lat="42.64244" lon="1.71329">
        <ele>1885.76</ele>
        <time>2017-06-25T08:45:02Z</time>
      </trkpt>
      <trkpt lat="42.64245" lon="1.71339">
        <ele>1889.13</ele>
        <time>2017-06-25T08:45:20Z</time>
      </trkpt>
      <trkpt lat="42.64245" lon="1.71352">
        <ele>1892.01</ele>
        <time>2017-06-25T08:45:39Z</time>
      </trkpt>
      <trkpt lat="42.64246" lon="1.71364">
        <ele>1893.93</ele>
        <time>2017-06-25T08:45:57Z</time>
      </trkpt>
      <trkpt lat="42.64248" lon="1.71379">
        <ele>1897.78</ele>
        <time>2017-06-25T08:46:13Z</time>
      </trkpt>
      <trkpt lat="42.64248" lon="1.7139">
        <ele>1900.18</ele>
        <time>2017-06-25T08:46:29Z</time>
      </trkpt>
      <trkpt lat="42.64248" lon="1.71393">
        <ele>1900.18</ele>
        <time>2017-06-25T08:46:32Z</time>
      </trkpt>
      <trkpt lat="42.64247" lon="1.71399">
        <ele>1901.14</ele>
        <time>2017-06-25T08:46:46Z</time>
      </trkpt>
      <trkpt lat="42.64244" lon="1.71409">
        <ele>1904.03</ele>
        <time>2017-06-25T08:47:01Z</time>
      </trkpt>
      <trkpt lat="42.64241" lon="1.71421">
        <ele>1904.99</ele>
        <time>2017-06-25T08:47:14Z</time>
      </trkpt>
      <trkpt lat="42.64242" lon="1.7143">
        <ele>1905.95</ele>
        <time>2017-06-25T08:47:30Z</time>
      </trkpt>
      <trkpt lat="42.64239" lon="1.71446">
        <ele>1907.87</ele>
        <time>2017-06-25T08:47:48Z</time>
      </trkpt>
      <trkpt lat="42.64238" lon="1.7146">
        <ele>1911.24</ele>
        <time>2017-06-25T08:48:08Z</time>
      </trkpt>
      <trkpt lat="42.64238" lon="1.71476">
        <ele>1913.16</ele>
        <time>2017-06-25T08:48:26Z</time>
      </trkpt>
      <trkpt lat="42.64246" lon="1.71497">
        <ele>1916.04</ele>
        <time>2017-06-25T08:48:48Z</time>
      </trkpt>
      <trkpt lat="42.64241" lon="1.7151">
        <ele>1918.93</ele>
        <time>2017-06-25T08:49:03Z</time>
      </trkpt>
      <trkpt lat="42.64243" lon="1.71526">
        <ele>1921.81</ele>
        <time>2017-06-25T08:49:25Z</time>
      </trkpt>
      <trkpt lat="42.64241" lon="1.71537">
        <ele>1925.18</ele>
        <time>2017-06-25T08:49:44Z</time>
      </trkpt>
      <trkpt lat="42.64241" lon="1.71553">
        <ele>1928.06</ele>
        <time>2017-06-25T08:50:03Z</time>
      </trkpt>
      <trkpt lat="42.64245" lon="1.71566">
        <ele>1930.95</ele>
        <time>2017-06-25T08:50:20Z</time>
      </trkpt>
      <trkpt lat="42.64243" lon="1.71585">
        <ele>1933.83</ele>
        <time>2017-06-25T08:50:42Z</time>
      </trkpt>
      <trkpt lat="42.64242" lon="1.71598">
        <ele>1937.19</ele>
        <time>2017-06-25T08:50:59Z</time>
      </trkpt>
      <trkpt lat="42.64244" lon="1.71609">
        <ele>1939.12</ele>
        <time>2017-06-25T08:51:15Z</time>
      </trkpt>
      <trkpt lat="42.64246" lon="1.71618">
        <ele>1942</ele>
        <time>2017-06-25T08:51:33Z</time>
      </trkpt>
      <trkpt lat="42.64251" lon="1.71628">
        <ele>1943.92</ele>
        <time>2017-06-25T08:51:55Z</time>
      </trkpt>
      <trkpt lat="42.64251" lon="1.7164">
        <ele>1946.81</ele>
        <time>2017-06-25T08:52:13Z</time>
      </trkpt>
      <trkpt lat="42.64251" lon="1.71652">
        <ele>1950.17</ele>
        <time>2017-06-25T08:52:31Z</time>
      </trkpt>
      <trkpt lat="42.64247" lon="1.71665">
        <ele>1951.13</ele>
        <time>2017-06-25T08:52:47Z</time>
      </trkpt>
      <trkpt lat="42.64248" lon="1.71671">
        <ele>1953.06</ele>
        <time>2017-06-25T08:53:03Z</time>
      </trkpt>
      <trkpt lat="42.6425" lon="1.71679">
        <ele>1955.94</ele>
        <time>2017-06-25T08:53:20Z</time>
      </trkpt>
      <trkpt lat="42.64247" lon="1.71692">
        <ele>1956.9</ele>
        <time>2017-06-25T08:53:37Z</time>
      </trkpt>
      <trkpt lat="42.64247" lon="1.71698">
        <ele>1958.82</ele>
        <time>2017-06-25T08:53:46Z</time>
      </trkpt>
      <trkpt lat="42.64247" lon="1.71704">
        <ele>1961.23</ele>
        <time>2017-06-25T08:53:59Z</time>
      </trkpt>
      <trkpt lat="42.64248" lon="1.7171">
        <ele>1964.11</ele>
        <time>2017-06-25T08:54:15Z</time>
      </trkpt>
      <trkpt lat="42.64248" lon="1.7172">
        <ele>1965.07</ele>
        <time>2017-06-25T08:54:29Z</time>
      </trkpt>
      <trkpt lat="42.64252" lon="1.71729">
        <ele>1967.96</ele>
        <time>2017-06-25T08:54:46Z</time>
      </trkpt>
      <trkpt lat="42.6425" lon="1.7174">
        <ele>1970.84</ele>
        <time>2017-06-25T08:55:04Z</time>
      </trkpt>
      <trkpt lat="42.64249" lon="1.71753">
        <ele>1971.8</ele>
        <time>2017-06-25T08:55:20Z</time>
      </trkpt>
      <trkpt lat="42.64246" lon="1.71762">
        <ele>1975.17</ele>
        <time>2017-06-25T08:55:39Z</time>
      </trkpt>
      <trkpt lat="42.64246" lon="1.71774">
        <ele>1977.09</ele>
        <time>2017-06-25T08:55:55Z</time>
      </trkpt>
      <trkpt lat="42.64242" lon="1.71781">
        <ele>1978.05</ele>
        <time>2017-06-25T08:56:02Z</time>
      </trkpt>
      <trkpt lat="42.64239" lon="1.7179">
        <ele>1979.01</ele>
        <time>2017-06-25T08:56:16Z</time>
      </trkpt>
      <trkpt lat="42.64237" lon="1.71797">
        <ele>1979.97</ele>
        <time>2017-06-25T08:56:24Z</time>
      </trkpt>
      <trkpt lat="42.64234" lon="1.7181">
        <ele>1981.9</ele>
        <time>2017-06-25T08:56:39Z</time>
      </trkpt>
      <trkpt lat="42.64237" lon="1.71828">
        <ele>1984.78</ele>
        <time>2017-06-25T08:56:58Z</time>
      </trkpt>
      <trkpt lat="42.64235" lon="1.71839">
        <ele>1988.14</ele>
        <time>2017-06-25T08:57:15Z</time>
      </trkpt>
      <trkpt lat="42.64236" lon="1.71844">
        <ele>1989.1</ele>
        <time>2017-06-25T08:57:31Z</time>
      </trkpt>
      <trkpt lat="42.64242" lon="1.71852">
        <ele>1991.03</ele>
        <time>2017-06-25T08:57:48Z</time>
      </trkpt>
      <trkpt lat="42.64244" lon="1.71864">
        <ele>1993.91</ele>
        <time>2017-06-25T08:58:04Z</time>
      </trkpt>
      <trkpt lat="42.6424" lon="1.71878">
        <ele>1996.8</ele>
        <time>2017-06-25T08:58:22Z</time>
      </trkpt>
      <trkpt lat="42.64238" lon="1.71881">
        <ele>1996.8</ele>
        <time>2017-06-25T08:58:26Z</time>
      </trkpt>
      <trkpt lat="42.64235" lon="1.71891">
        <ele>1999.2</ele>
        <time>2017-06-25T08:58:39Z</time>
      </trkpt>
      <trkpt lat="42.64232" lon="1.71899">
        <ele>2001.12</ele>
        <time>2017-06-25T08:58:50Z</time>
      </trkpt>
      <trkpt lat="42.64229" lon="1.71904">
        <ele>2002.08</ele>
        <time>2017-06-25T08:58:56Z</time>
      </trkpt>
      <trkpt lat="42.64228" lon="1.71914">
        <ele>2003.04</ele>
        <time>2017-06-25T08:59:08Z</time>
      </trkpt>
      <trkpt lat="42.64231" lon="1.71921">
        <ele>2004.97</ele>
        <time>2017-06-25T08:59:22Z</time>
      </trkpt>
      <trkpt lat="42.64232" lon="1.71929">
        <ele>2007.85</ele>
        <time>2017-06-25T08:59:38Z</time>
      </trkpt>
      <trkpt lat="42.64233" lon="1.71941">
        <ele>2009.77</ele>
        <time>2017-06-25T08:59:55Z</time>
      </trkpt>
      <trkpt lat="42.64236" lon="1.71956">
        <ele>2014.1</ele>
        <time>2017-06-25T09:00:14Z</time>
      </trkpt>
      <trkpt lat="42.64235" lon="1.71967">
        <ele>2016.98</ele>
        <time>2017-06-25T09:00:32Z</time>
      </trkpt>
      <trkpt lat="42.64235" lon="1.7198">
        <ele>2018.91</ele>
        <time>2017-06-25T09:00:50Z</time>
      </trkpt>
      <trkpt lat="42.64236" lon="1.71992">
        <ele>2021.79</ele>
        <time>2017-06-25T09:01:09Z</time>
      </trkpt>
      <trkpt lat="42.64231" lon="1.72002">
        <ele>2026.12</ele>
        <time>2017-06-25T09:01:26Z</time>
      </trkpt>
      <trkpt lat="42.64229" lon="1.72004">
        <ele>2026.12</ele>
        <time>2017-06-25T09:01:30Z</time>
      </trkpt>
      <trkpt lat="42.64225" lon="1.72015">
        <ele>2028.04</ele>
        <time>2017-06-25T09:01:44Z</time>
      </trkpt>
      <trkpt lat="42.64227" lon="1.72024">
        <ele>2029.96</ele>
        <time>2017-06-25T09:01:53Z</time>
      </trkpt>
      <trkpt lat="42.6423" lon="1.72036">
        <ele>2031.88</ele>
        <time>2017-06-25T09:02:08Z</time>
      </trkpt>
      <trkpt lat="42.64226" lon="1.72041">
        <ele>2033.81</ele>
        <time>2017-06-25T09:02:18Z</time>
      </trkpt>
      <trkpt lat="42.6422" lon="1.72051">
        <ele>2036.21</ele>
        <time>2017-06-25T09:02:31Z</time>
      </trkpt>
      <trkpt lat="42.6422" lon="1.72071">
        <ele>2039.09</ele>
        <time>2017-06-25T09:02:51Z</time>
      </trkpt>
      <trkpt lat="42.64218" lon="1.72087">
        <ele>2041.02</ele>
        <time>2017-06-25T09:03:07Z</time>
      </trkpt>
      <trkpt lat="42.64216" lon="1.72092">
        <ele>2041.98</ele>
        <time>2017-06-25T09:03:12Z</time>
      </trkpt>
      <trkpt lat="42.64214" lon="1.72104">
        <ele>2042.94</ele>
        <time>2017-06-25T09:03:27Z</time>
      </trkpt>
      <trkpt lat="42.64213" lon="1.72105">
        <ele>2042.94</ele>
        <time>2017-06-25T09:03:29Z</time>
      </trkpt>
      <trkpt lat="42.64214" lon="1.72114">
        <ele>2043.9</ele>
        <time>2017-06-25T09:03:41Z</time>
      </trkpt>
      <trkpt lat="42.64206" lon="1.72121">
        <ele>2045.82</ele>
        <time>2017-06-25T09:03:51Z</time>
      </trkpt>
      <trkpt lat="42.64202" lon="1.72129">
        <ele>2046.78</ele>
        <time>2017-06-25T09:04:00Z</time>
      </trkpt>
      <trkpt lat="42.64199" lon="1.72131">
        <ele>2048.23</ele>
        <time>2017-06-25T09:04:05Z</time>
      </trkpt>
      <trkpt lat="42.64195" lon="1.72139">
        <ele>2050.15</ele>
        <time>2017-06-25T09:04:15Z</time>
      </trkpt>
      <trkpt lat="42.64194" lon="1.7214">
        <ele>2050.15</ele>
        <time>2017-06-25T09:04:17Z</time>
      </trkpt>
      <trkpt lat="42.64187" lon="1.72146">
        <ele>2052.07</ele>
        <time>2017-06-25T09:04:29Z</time>
      </trkpt>
      <trkpt lat="42.64187" lon="1.72146">
        <ele>2053.03</ele>
        <time>2017-06-25T09:04:31Z</time>
      </trkpt>
      <trkpt lat="42.64186" lon="1.72158">
        <ele>2055.92</ele>
        <time>2017-06-25T09:04:44Z</time>
      </trkpt>
      <trkpt lat="42.64187" lon="1.72161">
        <ele>2057.84</ele>
        <time>2017-06-25T09:05:06Z</time>
      </trkpt>
      <trkpt lat="42.64183" lon="1.72176">
        <ele>2057.84</ele>
        <time>2017-06-25T09:05:29Z</time>
      </trkpt>
      <trkpt lat="42.6418" lon="1.72185">
        <ele>2061.2</ele>
        <time>2017-06-25T09:05:46Z</time>
      </trkpt>
      <trkpt lat="42.64178" lon="1.72191">
        <ele>2061.2</ele>
        <time>2017-06-25T09:05:51Z</time>
      </trkpt>
      <trkpt lat="42.64176" lon="1.72196">
        <ele>2061.2</ele>
        <time>2017-06-25T09:05:57Z</time>
      </trkpt>
      <trkpt lat="42.64171" lon="1.72208">
        <ele>2063.13</ele>
        <time>2017-06-25T09:06:07Z</time>
      </trkpt>
      <trkpt lat="42.6417" lon="1.72214">
        <ele>2064.09</ele>
        <time>2017-06-25T09:06:12Z</time>
      </trkpt>
      <trkpt lat="42.64166" lon="1.7222">
        <ele>2066.01</ele>
        <time>2017-06-25T09:06:22Z</time>
      </trkpt>
      <trkpt lat="42.64166" lon="1.72235">
        <ele>2067.93</ele>
        <time>2017-06-25T09:06:36Z</time>
      </trkpt>
      <trkpt lat="42.64166" lon="1.72236">
        <ele>2067.93</ele>
        <time>2017-06-25T09:06:37Z</time>
      </trkpt>
      <trkpt lat="42.64159" lon="1.7225">
        <ele>2070.82</ele>
        <time>2017-06-25T09:06:53Z</time>
      </trkpt>
      <trkpt lat="42.64157" lon="1.72257">
        <ele>2071.78</ele>
        <time>2017-06-25T09:07:00Z</time>
      </trkpt>
      <trkpt lat="42.64155" lon="1.72274">
        <ele>2075.14</ele>
        <time>2017-06-25T09:07:14Z</time>
      </trkpt>
      <trkpt lat="42.64155" lon="1.72289">
        <ele>2077.07</ele>
        <time>2017-06-25T09:07:27Z</time>
      </trkpt>
      <trkpt lat="42.64156" lon="1.72294">
        <ele>2077.07</ele>
        <time>2017-06-25T09:07:32Z</time>
      </trkpt>
      <trkpt lat="42.64151" lon="1.72313">
        <ele>2078.03</ele>
        <time>2017-06-25T09:07:48Z</time>
      </trkpt>
      <trkpt lat="42.6415" lon="1.72327">
        <ele>2078.99</ele>
        <time>2017-06-25T09:07:59Z</time>
      </trkpt>
      <trkpt lat="42.64155" lon="1.72354">
        <ele>2080.91</ele>
        <time>2017-06-25T09:08:18Z</time>
      </trkpt>
      <trkpt lat="42.64162" lon="1.72381">
        <ele>2081.87</ele>
        <time>2017-06-25T09:08:37Z</time>
      </trkpt>
      <trkpt lat="42.64173" lon="1.72395">
        <ele>2081.87</ele>
        <time>2017-06-25T09:08:55Z</time>
      </trkpt>
      <trkpt lat="42.64173" lon="1.72406">
        <ele>2085.24</ele>
        <time>2017-06-25T09:09:12Z</time>
      </trkpt>
      <trkpt lat="42.64167" lon="1.72412">
        <ele>2087.16</ele>
        <time>2017-06-25T09:09:32Z</time>
      </trkpt>
      <trkpt lat="42.64157" lon="1.72416">
        <ele>2088.12</ele>
        <time>2017-06-25T09:09:48Z</time>
      </trkpt>
      <trkpt lat="42.64147" lon="1.72414">
        <ele>2090.04</ele>
        <time>2017-06-25T09:10:00Z</time>
      </trkpt>
      <trkpt lat="42.64145" lon="1.72413">
        <ele>2091</ele>
        <time>2017-06-25T09:10:02Z</time>
      </trkpt>
      <trkpt lat="42.64142" lon="1.72411">
        <ele>2091</ele>
        <time>2017-06-25T09:10:05Z</time>
      </trkpt>
      <trkpt lat="42.64138" lon="1.7241">
        <ele>2091.97</ele>
        <time>2017-06-25T09:10:09Z</time>
      </trkpt>
      <trkpt lat="42.64127" lon="1.72407">
        <ele>2093.89</ele>
        <time>2017-06-25T09:10:26Z</time>
      </trkpt>
      <trkpt lat="42.64114" lon="1.72405">
        <ele>2095.81</ele>
        <time>2017-06-25T09:10:42Z</time>
      </trkpt>
      <trkpt lat="42.64099" lon="1.72404">
        <ele>2099.18</ele>
        <time>2017-06-25T09:11:00Z</time>
      </trkpt>
      <trkpt lat="42.64095" lon="1.72404">
        <ele>2100.14</ele>
        <time>2017-06-25T09:11:05Z</time>
      </trkpt>
      <trkpt lat="42.64086" lon="1.7241">
        <ele>2101.1</ele>
        <time>2017-06-25T09:11:20Z</time>
      </trkpt>
      <trkpt lat="42.64073" lon="1.72416">
        <ele>2103.02</ele>
        <time>2017-06-25T09:11:37Z</time>
      </trkpt>
      <trkpt lat="42.64061" lon="1.72417">
        <ele>2104.94</ele>
        <time>2017-06-25T09:11:53Z</time>
      </trkpt>
      <trkpt lat="42.64053" lon="1.7242">
        <ele>2106.87</ele>
        <time>2017-06-25T09:12:04Z</time>
      </trkpt>
      <trkpt lat="42.64036" lon="1.72432">
        <ele>2106.87</ele>
        <time>2017-06-25T09:12:22Z</time>
      </trkpt>
      <trkpt lat="42.64018" lon="1.72444">
        <ele>2108.79</ele>
        <time>2017-06-25T09:12:42Z</time>
      </trkpt>
      <trkpt lat="42.64006" lon="1.72458">
        <ele>2110.23</ele>
        <time>2017-06-25T09:13:00Z</time>
      </trkpt>
      <trkpt lat="42.63995" lon="1.72473">
        <ele>2111.19</ele>
        <time>2017-06-25T09:13:14Z</time>
      </trkpt>
      <trkpt lat="42.63986" lon="1.72492">
        <ele>2112.15</ele>
        <time>2017-06-25T09:13:33Z</time>
      </trkpt>
      <trkpt lat="42.63979" lon="1.72513">
        <ele>2113.12</ele>
        <time>2017-06-25T09:13:50Z</time>
      </trkpt>
      <trkpt lat="42.63967" lon="1.72531">
        <ele>2114.08</ele>
        <time>2017-06-25T09:14:08Z</time>
      </trkpt>
      <trkpt lat="42.63957" lon="1.72543">
        <ele>2116</ele>
        <time>2017-06-25T09:14:23Z</time>
      </trkpt>
      <trkpt lat="42.63952" lon="1.72551">
        <ele>2116.96</ele>
        <time>2017-06-25T09:14:39Z</time>
      </trkpt>
      <trkpt lat="42.63946" lon="1.72566">
        <ele>2117.92</ele>
        <time>2017-06-25T09:14:56Z</time>
      </trkpt>
      <trkpt lat="42.63937" lon="1.72569">
        <ele>2117.92</ele>
        <time>2017-06-25T09:15:10Z</time>
      </trkpt>
      <trkpt lat="42.63918" lon="1.72572">
        <ele>2117.92</ele>
        <time>2017-06-25T09:15:26Z</time>
      </trkpt>
      <trkpt lat="42.63911" lon="1.72575">
        <ele>2117.92</ele>
        <time>2017-06-25T09:15:33Z</time>
      </trkpt>
      <trkpt lat="42.63906" lon="1.72576">
        <ele>2117.92</ele>
        <time>2017-06-25T09:15:39Z</time>
      </trkpt>
      <trkpt lat="42.63904" lon="1.72578">
        <ele>2117.92</ele>
        <time>2017-06-25T09:15:41Z</time>
      </trkpt>
      <trkpt lat="42.6389" lon="1.72575">
        <ele>2119.84</ele>
        <time>2017-06-25T09:15:55Z</time>
      </trkpt>
      <trkpt lat="42.63878" lon="1.72578">
        <ele>2120.81</ele>
        <time>2017-06-25T09:16:07Z</time>
      </trkpt>
      <trkpt lat="42.63877" lon="1.72579">
        <ele>2120.81</ele>
        <time>2017-06-25T09:16:08Z</time>
      </trkpt>
      <trkpt lat="42.63867" lon="1.72582">
        <ele>2120.81</ele>
        <time>2017-06-25T09:16:20Z</time>
      </trkpt>
      <trkpt lat="42.6386" lon="1.72582">
        <ele>2120.81</ele>
        <time>2017-06-25T09:16:31Z</time>
      </trkpt>
      <trkpt lat="42.63858" lon="1.72582">
        <ele>2120.81</ele>
        <time>2017-06-25T09:16:33Z</time>
      </trkpt>
      <trkpt lat="42.63843" lon="1.7258">
        <ele>2121.77</ele>
        <time>2017-06-25T09:16:45Z</time>
      </trkpt>
      <trkpt lat="42.63834" lon="1.72578">
        <ele>2121.77</ele>
        <time>2017-06-25T09:16:54Z</time>
      </trkpt>
      <trkpt lat="42.63819" lon="1.72573">
        <ele>2121.77</ele>
        <time>2017-06-25T09:17:06Z</time>
      </trkpt>
      <trkpt lat="42.63817" lon="1.72571">
        <ele>2121.77</ele>
        <time>2017-06-25T09:17:08Z</time>
      </trkpt>
      <trkpt lat="42.63813" lon="1.7257">
        <ele>2121.77</ele>
        <time>2017-06-25T09:17:12Z</time>
      </trkpt>
      <trkpt lat="42.63804" lon="1.72568">
        <ele>2120.81</ele>
        <time>2017-06-25T09:17:30Z</time>
      </trkpt>
      <trkpt lat="42.63801" lon="1.72574">
        <ele>2120.81</ele>
        <time>2017-06-25T09:17:39Z</time>
      </trkpt>
      <trkpt lat="42.63796" lon="1.72582">
        <ele>2121.77</ele>
        <time>2017-06-25T09:17:54Z</time>
      </trkpt>
      <trkpt lat="42.63802" lon="1.72579">
        <ele>2121.77</ele>
        <time>2017-06-25T09:18:04Z</time>
      </trkpt>
      <trkpt lat="42.638" lon="1.72566">
        <ele>2123.21</ele>
        <time>2017-06-25T09:18:15Z</time>
      </trkpt>
      <trkpt lat="42.63797" lon="1.72569">
        <ele>2123.21</ele>
        <time>2017-06-25T09:18:19Z</time>
      </trkpt>
      <trkpt lat="42.63796" lon="1.72583">
        <ele>2121.77</ele>
        <time>2017-06-25T09:18:27Z</time>
      </trkpt>
      <trkpt lat="42.63796" lon="1.72591">
        <ele>2121.77</ele>
        <time>2017-06-25T09:18:31Z</time>
      </trkpt>
      <trkpt lat="42.63795" lon="1.72594">
        <ele>2121.77</ele>
        <time>2017-06-25T09:18:33Z</time>
      </trkpt>
      <trkpt lat="42.63794" lon="1.72593">
        <ele>2121.77</ele>
        <time>2017-06-25T09:18:47Z</time>
      </trkpt>
      <trkpt lat="42.63794" lon="1.72592">
        <ele>2121.77</ele>
        <time>2017-06-25T09:18:48Z</time>
      </trkpt>
      <trkpt lat="42.63792" lon="1.72589">
        <ele>2121.77</ele>
        <time>2017-06-25T09:18:51Z</time>
      </trkpt>
      <trkpt lat="42.63791" lon="1.72589">
        <ele>2120.81</ele>
        <time>2017-06-25T09:19:13Z</time>
      </trkpt>
      <trkpt lat="42.63791" lon="1.72586">
        <ele>2120.81</ele>
        <time>2017-06-25T09:19:16Z</time>
      </trkpt>
      <trkpt lat="42.63788" lon="1.72581">
        <ele>2120.81</ele>
        <time>2017-06-25T09:19:20Z</time>
      </trkpt>
      <trkpt lat="42.63776" lon="1.72577">
        <ele>2119.84</ele>
        <time>2017-06-25T09:19:36Z</time>
      </trkpt>
      <trkpt lat="42.63777" lon="1.72577">
        <ele>2120.81</ele>
        <time>2017-06-25T09:20:04Z</time>
      </trkpt>
      <trkpt lat="42.63778" lon="1.7258">
        <ele>2119.84</ele>
        <time>2017-06-25T09:20:35Z</time>
      </trkpt>
      <trkpt lat="42.63782" lon="1.72585">
        <ele>2119.84</ele>
        <time>2017-06-25T09:20:55Z</time>
      </trkpt>
      <trkpt lat="42.63782" lon="1.72585">
        <ele>2119.84</ele>
        <time>2017-06-25T09:20:56Z</time>
      </trkpt>
      <trkpt lat="42.63792" lon="1.72586">
        <ele>2119.84</ele>
        <time>2017-06-25T09:21:10Z</time>
      </trkpt>
      <trkpt lat="42.63797" lon="1.72579">
        <ele>2120.81</ele>
        <time>2017-06-25T09:21:18Z</time>
      </trkpt>
      <trkpt lat="42.63798" lon="1.72573">
        <ele>2120.81</ele>
        <time>2017-06-25T09:21:22Z</time>
      </trkpt>
      <trkpt lat="42.63807" lon="1.72565">
        <ele>2121.77</ele>
        <time>2017-06-25T09:21:36Z</time>
      </trkpt>
      <trkpt lat="42.63813" lon="1.72567">
        <ele>2120.81</ele>
        <time>2017-06-25T09:21:56Z</time>
      </trkpt>
      <trkpt lat="42.63818" lon="1.72572">
        <ele>2121.77</ele>
        <time>2017-06-25T09:22:15Z</time>
      </trkpt>
      <trkpt lat="42.63821" lon="1.72573">
        <ele>2121.77</ele>
        <time>2017-06-25T09:22:20Z</time>
      </trkpt>
      <trkpt lat="42.63831" lon="1.72577">
        <ele>2121.77</ele>
        <time>2017-06-25T09:22:31Z</time>
      </trkpt>
      <trkpt lat="42.63837" lon="1.72578">
        <ele>2121.77</ele>
        <time>2017-06-25T09:22:39Z</time>
      </trkpt>
      <trkpt lat="42.63844" lon="1.7258">
        <ele>2121.77</ele>
        <time>2017-06-25T09:22:46Z</time>
      </trkpt>
      <trkpt lat="42.63849" lon="1.7258">
        <ele>2121.77</ele>
        <time>2017-06-25T09:22:51Z</time>
      </trkpt>
      <trkpt lat="42.63854" lon="1.72581">
        <ele>2123.21</ele>
        <time>2017-06-25T09:22:57Z</time>
      </trkpt>
      <trkpt lat="42.63863" lon="1.72581">
        <ele>2123.21</ele>
        <time>2017-06-25T09:23:05Z</time>
      </trkpt>
      <trkpt lat="42.63866" lon="1.72581">
        <ele>2123.21</ele>
        <time>2017-06-25T09:23:07Z</time>
      </trkpt>
      <trkpt lat="42.63881" lon="1.72575">
        <ele>2121.77</ele>
        <time>2017-06-25T09:23:20Z</time>
      </trkpt>
      <trkpt lat="42.63893" lon="1.72573">
        <ele>2120.81</ele>
        <time>2017-06-25T09:23:33Z</time>
      </trkpt>
      <trkpt lat="42.63896" lon="1.72574">
        <ele>2120.81</ele>
        <time>2017-06-25T09:23:36Z</time>
      </trkpt>
      <trkpt lat="42.63904" lon="1.72576">
        <ele>2120.81</ele>
        <time>2017-06-25T09:23:43Z</time>
      </trkpt>
      <trkpt lat="42.63909" lon="1.72575">
        <ele>2119.84</ele>
        <time>2017-06-25T09:23:49Z</time>
      </trkpt>
      <trkpt lat="42.63912" lon="1.72574">
        <ele>2119.84</ele>
        <time>2017-06-25T09:23:53Z</time>
      </trkpt>
      <trkpt lat="42.63916" lon="1.72572">
        <ele>2118.88</ele>
        <time>2017-06-25T09:23:57Z</time>
      </trkpt>
      <trkpt lat="42.63919" lon="1.72571">
        <ele>2118.88</ele>
        <time>2017-06-25T09:24:00Z</time>
      </trkpt>
      <trkpt lat="42.63932" lon="1.72566">
        <ele>2118.88</ele>
        <time>2017-06-25T09:24:13Z</time>
      </trkpt>
      <trkpt lat="42.6394" lon="1.72567">
        <ele>2118.88</ele>
        <time>2017-06-25T09:24:24Z</time>
      </trkpt>
      <trkpt lat="42.63946" lon="1.72555">
        <ele>2117.92</ele>
        <time>2017-06-25T09:24:35Z</time>
      </trkpt>
      <trkpt lat="42.63954" lon="1.72542">
        <ele>2118.88</ele>
        <time>2017-06-25T09:24:47Z</time>
      </trkpt>
      <trkpt lat="42.63957" lon="1.72538">
        <ele>2118.88</ele>
        <time>2017-06-25T09:24:51Z</time>
      </trkpt>
      <trkpt lat="42.63959" lon="1.72535">
        <ele>2118.88</ele>
        <time>2017-06-25T09:24:54Z</time>
      </trkpt>
      <trkpt lat="42.6397" lon="1.72527">
        <ele>2116</ele>
        <time>2017-06-25T09:25:05Z</time>
      </trkpt>
      <trkpt lat="42.63972" lon="1.72525">
        <ele>2116</ele>
        <time>2017-06-25T09:25:07Z</time>
      </trkpt>
      <trkpt lat="42.63974" lon="1.72521">
        <ele>2116</ele>
        <time>2017-06-25T09:25:16Z</time>
      </trkpt>
      <trkpt lat="42.63979" lon="1.72513">
        <ele>2115.04</ele>
        <time>2017-06-25T09:25:23Z</time>
      </trkpt>
      <trkpt lat="42.63982" lon="1.725">
        <ele>2114.08</ele>
        <time>2017-06-25T09:25:32Z</time>
      </trkpt>
      <trkpt lat="42.63985" lon="1.72492">
        <ele>2114.08</ele>
        <time>2017-06-25T09:25:38Z</time>
      </trkpt>
      <trkpt lat="42.6399" lon="1.72487">
        <ele>2113.12</ele>
        <time>2017-06-25T09:25:43Z</time>
      </trkpt>
      <trkpt lat="42.63993" lon="1.72483">
        <ele>2113.12</ele>
        <time>2017-06-25T09:25:47Z</time>
      </trkpt>
      <trkpt lat="42.63999" lon="1.72474">
        <ele>2112.15</ele>
        <time>2017-06-25T09:25:54Z</time>
      </trkpt>
      <trkpt lat="42.64" lon="1.72462">
        <ele>2111.19</ele>
        <time>2017-06-25T09:26:05Z</time>
      </trkpt>
      <trkpt lat="42.64002" lon="1.7246">
        <ele>2110.23</ele>
        <time>2017-06-25T09:26:19Z</time>
      </trkpt>
      <trkpt lat="42.64003" lon="1.7246">
        <ele>2110.23</ele>
        <time>2017-06-25T09:26:23Z</time>
      </trkpt>
      <trkpt lat="42.64009" lon="1.72454">
        <ele>2110.23</ele>
        <time>2017-06-25T09:26:29Z</time>
      </trkpt>
      <trkpt lat="42.6402" lon="1.72447">
        <ele>2110.23</ele>
        <time>2017-06-25T09:26:38Z</time>
      </trkpt>
      <trkpt lat="42.64031" lon="1.72437">
        <ele>2110.23</ele>
        <time>2017-06-25T09:26:47Z</time>
      </trkpt>
      <trkpt lat="42.64033" lon="1.72433">
        <ele>2108.79</ele>
        <time>2017-06-25T09:26:50Z</time>
      </trkpt>
      <trkpt lat="42.64037" lon="1.7243">
        <ele>2107.83</ele>
        <time>2017-06-25T09:26:55Z</time>
      </trkpt>
      <trkpt lat="42.64049" lon="1.72424">
        <ele>2105.91</ele>
        <time>2017-06-25T09:27:07Z</time>
      </trkpt>
      <trkpt lat="42.64063" lon="1.72417">
        <ele>2104.94</ele>
        <time>2017-06-25T09:27:21Z</time>
      </trkpt>
      <trkpt lat="42.64064" lon="1.72415">
        <ele>2104.94</ele>
        <time>2017-06-25T09:27:24Z</time>
      </trkpt>
      <trkpt lat="42.64066" lon="1.72414">
        <ele>2105.91</ele>
        <time>2017-06-25T09:27:28Z</time>
      </trkpt>
      <trkpt lat="42.6407" lon="1.72412">
        <ele>2105.91</ele>
        <time>2017-06-25T09:27:34Z</time>
      </trkpt>
      <trkpt lat="42.64077" lon="1.72413">
        <ele>2105.91</ele>
        <time>2017-06-25T09:27:45Z</time>
      </trkpt>
      <trkpt lat="42.64086" lon="1.72409">
        <ele>2103.98</ele>
        <time>2017-06-25T09:27:54Z</time>
      </trkpt>
      <trkpt lat="42.64091" lon="1.72407">
        <ele>2103.02</ele>
        <time>2017-06-25T09:28:00Z</time>
      </trkpt>
      <trkpt lat="42.64101" lon="1.72401">
        <ele>2102.06</ele>
        <time>2017-06-25T09:28:09Z</time>
      </trkpt>
      <trkpt lat="42.64108" lon="1.724">
        <ele>2101.1</ele>
        <time>2017-06-25T09:28:17Z</time>
      </trkpt>
      <trkpt lat="42.6412" lon="1.724">
        <ele>2099.18</ele>
        <time>2017-06-25T09:28:28Z</time>
      </trkpt>
      <trkpt lat="42.64132" lon="1.72402">
        <ele>2095.81</ele>
        <time>2017-06-25T09:28:41Z</time>
      </trkpt>
      <trkpt lat="42.6414" lon="1.72403">
        <ele>2093.89</ele>
        <time>2017-06-25T09:28:51Z</time>
      </trkpt>
      <trkpt lat="42.64145" lon="1.72403">
        <ele>2092.93</ele>
        <time>2017-06-25T09:28:56Z</time>
      </trkpt>
      <trkpt lat="42.64151" lon="1.72407">
        <ele>2091.97</ele>
        <time>2017-06-25T09:29:06Z</time>
      </trkpt>
      <trkpt lat="42.64155" lon="1.72406">
        <ele>2091</ele>
        <time>2017-06-25T09:29:22Z</time>
      </trkpt>
      <trkpt lat="42.64165" lon="1.72406">
        <ele>2088.12</ele>
        <time>2017-06-25T09:29:40Z</time>
      </trkpt>
      <trkpt lat="42.64167" lon="1.72397">
        <ele>2087.16</ele>
        <time>2017-06-25T09:29:52Z</time>
      </trkpt>
      <trkpt lat="42.6417" lon="1.7239">
        <ele>2086.2</ele>
        <time>2017-06-25T09:30:08Z</time>
      </trkpt>
      <trkpt lat="42.64166" lon="1.72384">
        <ele>2083.79</ele>
        <time>2017-06-25T09:30:19Z</time>
      </trkpt>
      <trkpt lat="42.64158" lon="1.72372">
        <ele>2082.83</ele>
        <time>2017-06-25T09:30:34Z</time>
      </trkpt>
      <trkpt lat="42.64156" lon="1.72367">
        <ele>2081.87</ele>
        <time>2017-06-25T09:30:39Z</time>
      </trkpt>
      <trkpt lat="42.64152" lon="1.72354">
        <ele>2081.87</ele>
        <time>2017-06-25T09:30:50Z</time>
      </trkpt>
      <trkpt lat="42.64148" lon="1.7234">
        <ele>2081.87</ele>
        <time>2017-06-25T09:30:59Z</time>
      </trkpt>
      <trkpt lat="42.64148" lon="1.72328">
        <ele>2081.87</ele>
        <time>2017-06-25T09:31:05Z</time>
      </trkpt>
      <trkpt lat="42.64152" lon="1.72312">
        <ele>2080.91</ele>
        <time>2017-06-25T09:31:18Z</time>
      </trkpt>
      <trkpt lat="42.64153" lon="1.72305">
        <ele>2080.91</ele>
        <time>2017-06-25T09:31:23Z</time>
      </trkpt>
      <trkpt lat="42.64153" lon="1.72285">
        <ele>2078.99</ele>
        <time>2017-06-25T09:31:36Z</time>
      </trkpt>
      <trkpt lat="42.64153" lon="1.72279">
        <ele>2078.03</ele>
        <time>2017-06-25T09:31:41Z</time>
      </trkpt>
      <trkpt lat="42.64157" lon="1.72265">
        <ele>2077.07</ele>
        <time>2017-06-25T09:31:52Z</time>
      </trkpt>
      <trkpt lat="42.64157" lon="1.72258">
        <ele>2077.07</ele>
        <time>2017-06-25T09:31:59Z</time>
      </trkpt>
      <trkpt lat="42.64162" lon="1.72245">
        <ele>2075.14</ele>
        <time>2017-06-25T09:32:10Z</time>
      </trkpt>
      <trkpt lat="42.64165" lon="1.72239">
        <ele>2074.18</ele>
        <time>2017-06-25T09:32:14Z</time>
      </trkpt>
      <trkpt lat="42.64169" lon="1.72234">
        <ele>2073.22</ele>
        <time>2017-06-25T09:32:19Z</time>
      </trkpt>
      <trkpt lat="42.64168" lon="1.7222">
        <ele>2069.86</ele>
        <time>2017-06-25T09:32:30Z</time>
      </trkpt>
      <trkpt lat="42.64168" lon="1.72217">
        <ele>2069.86</ele>
        <time>2017-06-25T09:32:32Z</time>
      </trkpt>
      <trkpt lat="42.64171" lon="1.72216">
        <ele>2068.89</ele>
        <time>2017-06-25T09:32:36Z</time>
      </trkpt>
      <trkpt lat="42.64172" lon="1.72214">
        <ele>2068.89</ele>
        <time>2017-06-25T09:32:38Z</time>
      </trkpt>
      <trkpt lat="42.64178" lon="1.72205">
        <ele>2066.97</ele>
        <time>2017-06-25T09:32:49Z</time>
      </trkpt>
      <trkpt lat="42.64179" lon="1.722">
        <ele>2066.01</ele>
        <time>2017-06-25T09:32:53Z</time>
      </trkpt>
      <trkpt lat="42.64179" lon="1.72193">
        <ele>2065.05</ele>
        <time>2017-06-25T09:32:58Z</time>
      </trkpt>
      <trkpt lat="42.64181" lon="1.72188">
        <ele>2064.09</ele>
        <time>2017-06-25T09:33:02Z</time>
      </trkpt>
      <trkpt lat="42.64183" lon="1.72174">
        <ele>2062.17</ele>
        <time>2017-06-25T09:33:13Z</time>
      </trkpt>
      <trkpt lat="42.64183" lon="1.72171">
        <ele>2061.2</ele>
        <time>2017-06-25T09:33:16Z</time>
      </trkpt>
      <trkpt lat="42.64186" lon="1.72157">
        <ele>2058.8</ele>
        <time>2017-06-25T09:33:28Z</time>
      </trkpt>
      <trkpt lat="42.64188" lon="1.72147">
        <ele>2056.88</ele>
        <time>2017-06-25T09:33:38Z</time>
      </trkpt>
      <trkpt lat="42.64192" lon="1.72139">
        <ele>2054.96</ele>
        <time>2017-06-25T09:33:51Z</time>
      </trkpt>
      <trkpt lat="42.64196" lon="1.72136">
        <ele>2053.03</ele>
        <time>2017-06-25T09:33:59Z</time>
      </trkpt>
      <trkpt lat="42.64198" lon="1.72133">
        <ele>2053.03</ele>
        <time>2017-06-25T09:34:04Z</time>
      </trkpt>
      <trkpt lat="42.64205" lon="1.72123">
        <ele>2050.15</ele>
        <time>2017-06-25T09:34:18Z</time>
      </trkpt>
      <trkpt lat="42.64208" lon="1.72119">
        <ele>2049.19</ele>
        <time>2017-06-25T09:34:22Z</time>
      </trkpt>
      <trkpt lat="42.64213" lon="1.72113">
        <ele>2046.78</ele>
        <time>2017-06-25T09:34:32Z</time>
      </trkpt>
      <trkpt lat="42.64214" lon="1.72105">
        <ele>2044.86</ele>
        <time>2017-06-25T09:34:43Z</time>
      </trkpt>
      <trkpt lat="42.64214" lon="1.72104">
        <ele>2044.86</ele>
        <time>2017-06-25T09:34:52Z</time>
      </trkpt>
      <trkpt lat="42.64217" lon="1.72098">
        <ele>2043.9</ele>
        <time>2017-06-25T09:35:03Z</time>
      </trkpt>
      <trkpt lat="42.64217" lon="1.72094">
        <ele>2042.94</ele>
        <time>2017-06-25T09:35:19Z</time>
      </trkpt>
      <trkpt lat="42.64216" lon="1.7209">
        <ele>2042.94</ele>
        <time>2017-06-25T09:35:58Z</time>
      </trkpt>
      <trkpt lat="42.64217" lon="1.72088">
        <ele>2042.94</ele>
        <time>2017-06-25T09:36:00Z</time>
      </trkpt>
      <trkpt lat="42.64219" lon="1.72084">
        <ele>2042.94</ele>
        <time>2017-06-25T09:36:03Z</time>
      </trkpt>
      <trkpt lat="42.64219" lon="1.72079">
        <ele>2041.98</ele>
        <time>2017-06-25T09:36:08Z</time>
      </trkpt>
      <trkpt lat="42.64222" lon="1.72066">
        <ele>2041.02</ele>
        <time>2017-06-25T09:36:21Z</time>
      </trkpt>
      <trkpt lat="42.64223" lon="1.72055">
        <ele>2040.05</ele>
        <time>2017-06-25T09:36:30Z</time>
      </trkpt>
      <trkpt lat="42.64225" lon="1.7205">
        <ele>2039.09</ele>
        <time>2017-06-25T09:36:35Z</time>
      </trkpt>
      <trkpt lat="42.64224" lon="1.72048">
        <ele>2038.13</ele>
        <time>2017-06-25T09:36:37Z</time>
      </trkpt>
      <trkpt lat="42.64227" lon="1.72038">
        <ele>2038.13</ele>
        <time>2017-06-25T09:36:45Z</time>
      </trkpt>
      <trkpt lat="42.64234" lon="1.72033">
        <ele>2034.77</ele>
        <time>2017-06-25T09:36:58Z</time>
      </trkpt>
      <trkpt lat="42.64235" lon="1.72031">
        <ele>2033.81</ele>
        <time>2017-06-25T09:37:10Z</time>
      </trkpt>
      <trkpt lat="42.64236" lon="1.72026">
        <ele>2033.81</ele>
        <time>2017-06-25T09:37:16Z</time>
      </trkpt>
      <trkpt lat="42.64243" lon="1.72017">
        <ele>2032.84</ele>
        <time>2017-06-25T09:37:30Z</time>
      </trkpt>
      <trkpt lat="42.64243" lon="1.72009">
        <ele>2031.88</ele>
        <time>2017-06-25T09:37:38Z</time>
      </trkpt>
      <trkpt lat="42.64249" lon="1.71997">
        <ele>2030.92</ele>
        <time>2017-06-25T09:37:51Z</time>
      </trkpt>
      <trkpt lat="42.64249" lon="1.71996">
        <ele>2029.96</ele>
        <time>2017-06-25T09:37:52Z</time>
      </trkpt>
      <trkpt lat="42.64247" lon="1.71985">
        <ele>2028.04</ele>
        <time>2017-06-25T09:38:07Z</time>
      </trkpt>
      <trkpt lat="42.64249" lon="1.71983">
        <ele>2027.08</ele>
        <time>2017-06-25T09:38:10Z</time>
      </trkpt>
      <trkpt lat="42.64251" lon="1.7198">
        <ele>2027.08</ele>
        <time>2017-06-25T09:38:13Z</time>
      </trkpt>
      <trkpt lat="42.64252" lon="1.71967">
        <ele>2025.15</ele>
        <time>2017-06-25T09:38:25Z</time>
      </trkpt>
      <trkpt lat="42.64256" lon="1.71953">
        <ele>2024.19</ele>
        <time>2017-06-25T09:38:35Z</time>
      </trkpt>
      <trkpt lat="42.64258" lon="1.71945">
        <ele>2023.23</ele>
        <time>2017-06-25T09:38:42Z</time>
      </trkpt>
      <trkpt lat="42.64257" lon="1.71934">
        <ele>2020.83</ele>
        <time>2017-06-25T09:38:55Z</time>
      </trkpt>
      <trkpt lat="42.64257" lon="1.7193">
        <ele>2018.91</ele>
        <time>2017-06-25T09:39:07Z</time>
      </trkpt>
      <trkpt lat="42.64258" lon="1.71925">
        <ele>2016.98</ele>
        <time>2017-06-25T09:39:21Z</time>
      </trkpt>
      <trkpt lat="42.64259" lon="1.71911">
        <ele>2015.06</ele>
        <time>2017-06-25T09:39:34Z</time>
      </trkpt>
      <trkpt lat="42.64262" lon="1.71902">
        <ele>2012.18</ele>
        <time>2017-06-25T09:39:49Z</time>
      </trkpt>
      <trkpt lat="42.64262" lon="1.71901">
        <ele>2012.18</ele>
        <time>2017-06-25T09:39:50Z</time>
      </trkpt>
      <trkpt lat="42.64266" lon="1.71895">
        <ele>2009.77</ele>
        <time>2017-06-25T09:39:57Z</time>
      </trkpt>
      <trkpt lat="42.64267" lon="1.7189">
        <ele>2008.81</ele>
        <time>2017-06-25T09:40:01Z</time>
      </trkpt>
      <trkpt lat="42.64266" lon="1.71886">
        <ele>2008.81</ele>
        <time>2017-06-25T09:40:05Z</time>
      </trkpt>
      <trkpt lat="42.6427" lon="1.71883">
        <ele>2007.85</ele>
        <time>2017-06-25T09:40:09Z</time>
      </trkpt>
      <trkpt lat="42.6427" lon="1.71875">
        <ele>2007.85</ele>
        <time>2017-06-25T09:40:13Z</time>
      </trkpt>
      <trkpt lat="42.64269" lon="1.71866">
        <ele>2005.93</ele>
        <time>2017-06-25T09:40:27Z</time>
      </trkpt>
      <trkpt lat="42.64267" lon="1.71857">
        <ele>2004.97</ele>
        <time>2017-06-25T09:40:40Z</time>
      </trkpt>
      <trkpt lat="42.64264" lon="1.71851">
        <ele>2004.01</ele>
        <time>2017-06-25T09:40:54Z</time>
      </trkpt>
      <trkpt lat="42.64264" lon="1.71847">
        <ele>2003.04</ele>
        <time>2017-06-25T09:41:01Z</time>
      </trkpt>
      <trkpt lat="42.64265" lon="1.71842">
        <ele>2003.04</ele>
        <time>2017-06-25T09:41:15Z</time>
      </trkpt>
      <trkpt lat="42.64268" lon="1.71834">
        <ele>2002.08</ele>
        <time>2017-06-25T09:41:27Z</time>
      </trkpt>
      <trkpt lat="42.64268" lon="1.71833">
        <ele>2001.12</ele>
        <time>2017-06-25T09:41:33Z</time>
      </trkpt>
      <trkpt lat="42.64269" lon="1.71833">
        <ele>2000.16</ele>
        <time>2017-06-25T09:41:45Z</time>
      </trkpt>
      <trkpt lat="42.64268" lon="1.71835">
        <ele>2000.16</ele>
        <time>2017-06-25T09:41:57Z</time>
      </trkpt>
      <trkpt lat="42.64266" lon="1.71837">
        <ele>1999.2</ele>
        <time>2017-06-25T09:42:09Z</time>
      </trkpt>
      <trkpt lat="42.64262" lon="1.71838">
        <ele>1999.2</ele>
        <time>2017-06-25T09:42:19Z</time>
      </trkpt>
      <trkpt lat="42.64261" lon="1.7184">
        <ele>1998.24</ele>
        <time>2017-06-25T09:42:21Z</time>
      </trkpt>
      <trkpt lat="42.64257" lon="1.71841">
        <ele>1998.24</ele>
        <time>2017-06-25T09:42:30Z</time>
      </trkpt>
      <trkpt lat="42.64255" lon="1.71842">
        <ele>1996.8</ele>
        <time>2017-06-25T09:42:42Z</time>
      </trkpt>
      <trkpt lat="42.64252" lon="1.71845">
        <ele>1995.83</ele>
        <time>2017-06-25T09:42:59Z</time>
      </trkpt>
      <trkpt lat="42.64251" lon="1.71851">
        <ele>1995.83</ele>
        <time>2017-06-25T09:43:09Z</time>
      </trkpt>
      <trkpt lat="42.64249" lon="1.71859">
        <ele>1996.8</ele>
        <time>2017-06-25T09:43:20Z</time>
      </trkpt>
      <trkpt lat="42.64245" lon="1.71869">
        <ele>1998.24</ele>
        <time>2017-06-25T09:43:33Z</time>
      </trkpt>
      <trkpt lat="42.64243" lon="1.71871">
        <ele>1998.24</ele>
        <time>2017-06-25T09:43:40Z</time>
      </trkpt>
      <trkpt lat="42.64242" lon="1.71865">
        <ele>1996.8</ele>
        <time>2017-06-25T09:43:50Z</time>
      </trkpt>
      <trkpt lat="42.64242" lon="1.71853">
        <ele>1994.87</ele>
        <time>2017-06-25T09:44:03Z</time>
      </trkpt>
      <trkpt lat="42.64241" lon="1.71852">
        <ele>1993.91</ele>
        <time>2017-06-25T09:44:04Z</time>
      </trkpt>
      <trkpt lat="42.64238" lon="1.71842">
        <ele>1991.03</ele>
        <time>2017-06-25T09:44:18Z</time>
      </trkpt>
      <trkpt lat="42.64235" lon="1.71838">
        <ele>1990.07</ele>
        <time>2017-06-25T09:44:26Z</time>
      </trkpt>
      <trkpt lat="42.64236" lon="1.71835">
        <ele>1989.1</ele>
        <time>2017-06-25T09:44:32Z</time>
      </trkpt>
      <trkpt lat="42.64232" lon="1.71816">
        <ele>1987.18</ele>
        <time>2017-06-25T09:44:47Z</time>
      </trkpt>
      <trkpt lat="42.64233" lon="1.71808">
        <ele>1986.22</ele>
        <time>2017-06-25T09:44:57Z</time>
      </trkpt>
      <trkpt lat="42.64235" lon="1.71797">
        <ele>1982.86</ele>
        <time>2017-06-25T09:45:07Z</time>
      </trkpt>
      <trkpt lat="42.64235" lon="1.71797">
        <ele>1982.86</ele>
        <time>2017-06-25T09:45:08Z</time>
      </trkpt>
      <trkpt lat="42.64235" lon="1.71796">
        <ele>1981.9</ele>
        <time>2017-06-25T09:45:09Z</time>
      </trkpt>
      <trkpt lat="42.6424" lon="1.71786">
        <ele>1980.93</ele>
        <time>2017-06-25T09:45:21Z</time>
      </trkpt>
      <trkpt lat="42.6424" lon="1.71782">
        <ele>1979.97</ele>
        <time>2017-06-25T09:45:28Z</time>
      </trkpt>
      <trkpt lat="42.64243" lon="1.71777">
        <ele>1979.01</ele>
        <time>2017-06-25T09:45:33Z</time>
      </trkpt>
      <trkpt lat="42.64242" lon="1.71763">
        <ele>1978.05</ele>
        <time>2017-06-25T09:45:44Z</time>
      </trkpt>
      <trkpt lat="42.64243" lon="1.71763">
        <ele>1978.05</ele>
        <time>2017-06-25T09:45:46Z</time>
      </trkpt>
      <trkpt lat="42.64245" lon="1.71759">
        <ele>1978.05</ele>
        <time>2017-06-25T09:45:50Z</time>
      </trkpt>
      <trkpt lat="42.64246" lon="1.71754">
        <ele>1976.13</ele>
        <time>2017-06-25T09:46:02Z</time>
      </trkpt>
      <trkpt lat="42.64243" lon="1.71742">
        <ele>1975.17</ele>
        <time>2017-06-25T09:46:16Z</time>
      </trkpt>
      <trkpt lat="42.64244" lon="1.71739">
        <ele>1974.2</ele>
        <time>2017-06-25T09:46:19Z</time>
      </trkpt>
      <trkpt lat="42.64246" lon="1.71733">
        <ele>1972.76</ele>
        <time>2017-06-25T09:46:26Z</time>
      </trkpt>
      <trkpt lat="42.64245" lon="1.71731">
        <ele>1972.76</ele>
        <time>2017-06-25T09:46:28Z</time>
      </trkpt>
      <trkpt lat="42.64244" lon="1.71722">
        <ele>1971.8</ele>
        <time>2017-06-25T09:46:42Z</time>
      </trkpt>
      <trkpt lat="42.64244" lon="1.71718">
        <ele>1970.84</ele>
        <time>2017-06-25T09:46:47Z</time>
      </trkpt>
      <trkpt lat="42.6424" lon="1.71712">
        <ele>1968.92</ele>
        <time>2017-06-25T09:46:59Z</time>
      </trkpt>
      <trkpt lat="42.64241" lon="1.71707">
        <ele>1966.99</ele>
        <time>2017-06-25T09:47:10Z</time>
      </trkpt>
      <trkpt lat="42.64242" lon="1.71705">
        <ele>1966.03</ele>
        <time>2017-06-25T09:47:22Z</time>
      </trkpt>
      <trkpt lat="42.64238" lon="1.71698">
        <ele>1963.15</ele>
        <time>2017-06-25T09:47:40Z</time>
      </trkpt>
      <trkpt lat="42.64238" lon="1.71691">
        <ele>1962.19</ele>
        <time>2017-06-25T09:47:53Z</time>
      </trkpt>
      <trkpt lat="42.64238" lon="1.71684">
        <ele>1959.78</ele>
        <time>2017-06-25T09:48:05Z</time>
      </trkpt>
      <trkpt lat="42.64238" lon="1.71674">
        <ele>1957.86</ele>
        <time>2017-06-25T09:48:18Z</time>
      </trkpt>
      <trkpt lat="42.6424" lon="1.7167">
        <ele>1956.9</ele>
        <time>2017-06-25T09:48:22Z</time>
      </trkpt>
      <trkpt lat="42.64239" lon="1.71661">
        <ele>1955.94</ele>
        <time>2017-06-25T09:48:33Z</time>
      </trkpt>
      <trkpt lat="42.64238" lon="1.71659">
        <ele>1954.98</ele>
        <time>2017-06-25T09:48:35Z</time>
      </trkpt>
      <trkpt lat="42.64241" lon="1.71654">
        <ele>1954.02</ele>
        <time>2017-06-25T09:48:40Z</time>
      </trkpt>
      <trkpt lat="42.64245" lon="1.71651">
        <ele>1954.02</ele>
        <time>2017-06-25T09:48:43Z</time>
      </trkpt>
      <trkpt lat="42.64244" lon="1.71644">
        <ele>1952.09</ele>
        <time>2017-06-25T09:48:53Z</time>
      </trkpt>
      <trkpt lat="42.64243" lon="1.71634">
        <ele>1951.13</ele>
        <time>2017-06-25T09:49:06Z</time>
      </trkpt>
      <trkpt lat="42.64243" lon="1.71622">
        <ele>1947.77</ele>
        <time>2017-06-25T09:49:23Z</time>
      </trkpt>
      <trkpt lat="42.64241" lon="1.71613">
        <ele>1945.85</ele>
        <time>2017-06-25T09:49:30Z</time>
      </trkpt>
      <trkpt lat="42.64239" lon="1.71608">
        <ele>1944.88</ele>
        <time>2017-06-25T09:49:35Z</time>
      </trkpt>
      <trkpt lat="42.64237" lon="1.71598">
        <ele>1943.92</ele>
        <time>2017-06-25T09:49:43Z</time>
      </trkpt>
      <trkpt lat="42.64239" lon="1.71589">
        <ele>1942</ele>
        <time>2017-06-25T09:49:54Z</time>
      </trkpt>
      <trkpt lat="42.64236" lon="1.71585">
        <ele>1940.08</ele>
        <time>2017-06-25T09:50:07Z</time>
      </trkpt>
      <trkpt lat="42.64236" lon="1.71574">
        <ele>1937.19</ele>
        <time>2017-06-25T09:50:19Z</time>
      </trkpt>
      <trkpt lat="42.64237" lon="1.71564">
        <ele>1933.83</ele>
        <time>2017-06-25T09:50:32Z</time>
      </trkpt>
      <trkpt lat="42.64239" lon="1.71557">
        <ele>1932.87</ele>
        <time>2017-06-25T09:50:41Z</time>
      </trkpt>
      <trkpt lat="42.64239" lon="1.71556">
        <ele>1931.91</ele>
        <time>2017-06-25T09:50:42Z</time>
      </trkpt>
      <trkpt lat="42.64237" lon="1.71545">
        <ele>1929.98</ele>
        <time>2017-06-25T09:50:55Z</time>
      </trkpt>
      <trkpt lat="42.64236" lon="1.71537">
        <ele>1929.02</ele>
        <time>2017-06-25T09:51:00Z</time>
      </trkpt>
      <trkpt lat="42.64237" lon="1.71523">
        <ele>1926.14</ele>
        <time>2017-06-25T09:51:15Z</time>
      </trkpt>
      <trkpt lat="42.64237" lon="1.71521">
        <ele>1926.14</ele>
        <time>2017-06-25T09:51:17Z</time>
      </trkpt>
      <trkpt lat="42.64238" lon="1.71505">
        <ele>1924.22</ele>
        <time>2017-06-25T09:51:30Z</time>
      </trkpt>
      <trkpt lat="42.64237" lon="1.71503">
        <ele>1922.77</ele>
        <time>2017-06-25T09:51:31Z</time>
      </trkpt>
      <trkpt lat="42.64237" lon="1.71493">
        <ele>1920.85</ele>
        <time>2017-06-25T09:51:44Z</time>
      </trkpt>
      <trkpt lat="42.64234" lon="1.71488">
        <ele>1919.89</ele>
        <time>2017-06-25T09:51:47Z</time>
      </trkpt>
      <trkpt lat="42.64232" lon="1.71479">
        <ele>1918.93</ele>
        <time>2017-06-25T09:51:58Z</time>
      </trkpt>
      <trkpt lat="42.64232" lon="1.71478">
        <ele>1917.97</ele>
        <time>2017-06-25T09:52:00Z</time>
      </trkpt>
      <trkpt lat="42.64231" lon="1.71473">
        <ele>1917.97</ele>
        <time>2017-06-25T09:52:03Z</time>
      </trkpt>
      <trkpt lat="42.64233" lon="1.71458">
        <ele>1915.08</ele>
        <time>2017-06-25T09:52:16Z</time>
      </trkpt>
      <trkpt lat="42.64234" lon="1.71452">
        <ele>1914.12</ele>
        <time>2017-06-25T09:52:23Z</time>
      </trkpt>
      <trkpt lat="42.64235" lon="1.71446">
        <ele>1914.12</ele>
        <time>2017-06-25T09:52:27Z</time>
      </trkpt>
      <trkpt lat="42.64238" lon="1.71437">
        <ele>1911.24</ele>
        <time>2017-06-25T09:52:36Z</time>
      </trkpt>
      <trkpt lat="42.64239" lon="1.71432">
        <ele>1911.24</ele>
        <time>2017-06-25T09:52:40Z</time>
      </trkpt>
      <trkpt lat="42.64238" lon="1.71428">
        <ele>1909.8</ele>
        <time>2017-06-25T09:52:44Z</time>
      </trkpt>
      <trkpt lat="42.64238" lon="1.71419">
        <ele>1908.83</ele>
        <time>2017-06-25T09:52:55Z</time>
      </trkpt>
      <trkpt lat="42.64238" lon="1.71412">
        <ele>1908.83</ele>
        <time>2017-06-25T09:52:59Z</time>
      </trkpt>
      <trkpt lat="42.64239" lon="1.71409">
        <ele>1907.87</ele>
        <time>2017-06-25T09:53:01Z</time>
      </trkpt>
      <trkpt lat="42.6424" lon="1.71407">
        <ele>1907.87</ele>
        <time>2017-06-25T09:53:04Z</time>
      </trkpt>
      <trkpt lat="42.64244" lon="1.71399">
        <ele>1905.95</ele>
        <time>2017-06-25T09:53:15Z</time>
      </trkpt>
      <trkpt lat="42.64244" lon="1.71392">
        <ele>1904.99</ele>
        <time>2017-06-25T09:53:30Z</time>
      </trkpt>
      <trkpt lat="42.64244" lon="1.71384">
        <ele>1902.11</ele>
        <time>2017-06-25T09:53:48Z</time>
      </trkpt>
      <trkpt lat="42.64244" lon="1.71379">
        <ele>1902.11</ele>
        <time>2017-06-25T09:53:52Z</time>
      </trkpt>
      <trkpt lat="42.64242" lon="1.71368">
        <ele>1901.14</ele>
        <time>2017-06-25T09:53:58Z</time>
      </trkpt>
      <trkpt lat="42.64241" lon="1.71359">
        <ele>1900.18</ele>
        <time>2017-06-25T09:54:03Z</time>
      </trkpt>
      <trkpt lat="42.6424" lon="1.7135">
        <ele>1897.78</ele>
        <time>2017-06-25T09:54:17Z</time>
      </trkpt>
      <trkpt lat="42.6424" lon="1.71344">
        <ele>1895.86</ele>
        <time>2017-06-25T09:54:24Z</time>
      </trkpt>
      <trkpt lat="42.6424" lon="1.71334">
        <ele>1893.93</ele>
        <time>2017-06-25T09:54:37Z</time>
      </trkpt>
      <trkpt lat="42.64241" lon="1.71327">
        <ele>1891.05</ele>
        <time>2017-06-25T09:54:50Z</time>
      </trkpt>
      <trkpt lat="42.64239" lon="1.71325">
        <ele>1890.09</ele>
        <time>2017-06-25T09:54:53Z</time>
      </trkpt>
      <trkpt lat="42.64235" lon="1.71321">
        <ele>1888.17</ele>
        <time>2017-06-25T09:55:02Z</time>
      </trkpt>
      <trkpt lat="42.64232" lon="1.71309">
        <ele>1885.76</ele>
        <time>2017-06-25T09:55:13Z</time>
      </trkpt>
      <trkpt lat="42.64231" lon="1.71303">
        <ele>1883.84</ele>
        <time>2017-06-25T09:55:28Z</time>
      </trkpt>
      <trkpt lat="42.64228" lon="1.71296">
        <ele>1881.92</ele>
        <time>2017-06-25T09:55:38Z</time>
      </trkpt>
      <trkpt lat="42.64228" lon="1.71292">
        <ele>1880.96</ele>
        <time>2017-06-25T09:55:45Z</time>
      </trkpt>
      <trkpt lat="42.64227" lon="1.71284">
        <ele>1879.03</ele>
        <time>2017-06-25T09:55:53Z</time>
      </trkpt>
      <trkpt lat="42.64228" lon="1.71278">
        <ele>1877.11</ele>
        <time>2017-06-25T09:56:08Z</time>
      </trkpt>
      <trkpt lat="42.64228" lon="1.71273">
        <ele>1877.11</ele>
        <time>2017-06-25T09:56:18Z</time>
      </trkpt>
      <trkpt lat="42.64227" lon="1.71263">
        <ele>1875.19</ele>
        <time>2017-06-25T09:56:33Z</time>
      </trkpt>
      <trkpt lat="42.64226" lon="1.71258">
        <ele>1874.23</ele>
        <time>2017-06-25T09:56:43Z</time>
      </trkpt>
      <trkpt lat="42.64224" lon="1.71252">
        <ele>1870.86</ele>
        <time>2017-06-25T09:56:57Z</time>
      </trkpt>
      <trkpt lat="42.64221" lon="1.71244">
        <ele>1868.94</ele>
        <time>2017-06-25T09:57:09Z</time>
      </trkpt>
      <trkpt lat="42.64218" lon="1.71239">
        <ele>1867.98</ele>
        <time>2017-06-25T09:57:16Z</time>
      </trkpt>
      <trkpt lat="42.64213" lon="1.71228">
        <ele>1865.09</ele>
        <time>2017-06-25T09:57:25Z</time>
      </trkpt>
      <trkpt lat="42.64209" lon="1.71225">
        <ele>1865.09</ele>
        <time>2017-06-25T09:57:28Z</time>
      </trkpt>
      <trkpt lat="42.64208" lon="1.71224">
        <ele>1864.13</ele>
        <time>2017-06-25T09:57:31Z</time>
      </trkpt>
      <trkpt lat="42.64203" lon="1.71222">
        <ele>1863.17</ele>
        <time>2017-06-25T09:57:39Z</time>
      </trkpt>
      <trkpt lat="42.64202" lon="1.71218">
        <ele>1860.77</ele>
        <time>2017-06-25T09:57:45Z</time>
      </trkpt>
      <trkpt lat="42.642" lon="1.71213">
        <ele>1859.81</ele>
        <time>2017-06-25T09:57:49Z</time>
      </trkpt>
      <trkpt lat="42.64194" lon="1.71206">
        <ele>1858.85</ele>
        <time>2017-06-25T09:57:59Z</time>
      </trkpt>
      <trkpt lat="42.64194" lon="1.71201">
        <ele>1857.89</ele>
        <time>2017-06-25T09:58:02Z</time>
      </trkpt>
      <trkpt lat="42.64191" lon="1.71197">
        <ele>1856.92</ele>
        <time>2017-06-25T09:58:06Z</time>
      </trkpt>
      <trkpt lat="42.64184" lon="1.7119">
        <ele>1855</ele>
        <time>2017-06-25T09:58:14Z</time>
      </trkpt>
      <trkpt lat="42.64181" lon="1.71184">
        <ele>1854.04</ele>
        <time>2017-06-25T09:58:20Z</time>
      </trkpt>
      <trkpt lat="42.64175" lon="1.71171">
        <ele>1853.08</ele>
        <time>2017-06-25T09:58:31Z</time>
      </trkpt>
      <trkpt lat="42.64169" lon="1.71153">
        <ele>1851.16</ele>
        <time>2017-06-25T09:58:43Z</time>
      </trkpt>
      <trkpt lat="42.64163" lon="1.71139">
        <ele>1850.19</ele>
        <time>2017-06-25T09:58:52Z</time>
      </trkpt>
      <trkpt lat="42.64162" lon="1.71136">
        <ele>1850.19</ele>
        <time>2017-06-25T09:58:54Z</time>
      </trkpt>
      <trkpt lat="42.6416" lon="1.71132">
        <ele>1849.23</ele>
        <time>2017-06-25T09:58:57Z</time>
      </trkpt>
      <trkpt lat="42.64153" lon="1.71118">
        <ele>1847.79</ele>
        <time>2017-06-25T09:59:06Z</time>
      </trkpt>
      <trkpt lat="42.64153" lon="1.71117">
        <ele>1847.79</ele>
        <time>2017-06-25T09:59:07Z</time>
      </trkpt>
      <trkpt lat="42.6415" lon="1.71113">
        <ele>1847.79</ele>
        <time>2017-06-25T09:59:11Z</time>
      </trkpt>
      <trkpt lat="42.64148" lon="1.71107">
        <ele>1846.83</ele>
        <time>2017-06-25T09:59:24Z</time>
      </trkpt>
      <trkpt lat="42.64145" lon="1.71101">
        <ele>1845.87</ele>
        <time>2017-06-25T09:59:35Z</time>
      </trkpt>
      <trkpt lat="42.64145" lon="1.71099">
        <ele>1845.87</ele>
        <time>2017-06-25T09:59:42Z</time>
      </trkpt>
      <trkpt lat="42.64143" lon="1.71088">
        <ele>1844.91</ele>
        <time>2017-06-25T10:00:00Z</time>
      </trkpt>
      <trkpt lat="42.64143" lon="1.71089">
        <ele>1844.91</ele>
        <time>2017-06-25T10:00:32Z</time>
      </trkpt>
      <trkpt lat="42.64143" lon="1.71087">
        <ele>1844.91</ele>
        <time>2017-06-25T10:00:49Z</time>
      </trkpt>
      <trkpt lat="42.64143" lon="1.71082">
        <ele>1844.91</ele>
        <time>2017-06-25T10:00:53Z</time>
      </trkpt>
      <trkpt lat="42.64143" lon="1.71076">
        <ele>1844.91</ele>
        <time>2017-06-25T10:00:57Z</time>
      </trkpt>
      <trkpt lat="42.64143" lon="1.71068">
        <ele>1844.91</ele>
        <time>2017-06-25T10:01:13Z</time>
      </trkpt>
      <trkpt lat="42.64143" lon="1.71066">
        <ele>1843.95</ele>
        <time>2017-06-25T10:01:26Z</time>
      </trkpt>
      <trkpt lat="42.64141" lon="1.71056">
        <ele>1843.95</ele>
        <time>2017-06-25T10:01:37Z</time>
      </trkpt>
      <trkpt lat="42.6414" lon="1.71053">
        <ele>1843.95</ele>
        <time>2017-06-25T10:01:42Z</time>
      </trkpt>
      <trkpt lat="42.64138" lon="1.7104">
        <ele>1843.95</ele>
        <time>2017-06-25T10:01:51Z</time>
      </trkpt>
      <trkpt lat="42.64134" lon="1.7103">
        <ele>1842.98</ele>
        <time>2017-06-25T10:02:01Z</time>
      </trkpt>
      <trkpt lat="42.64129" lon="1.71028">
        <ele>1841.06</ele>
        <time>2017-06-25T10:02:13Z</time>
      </trkpt>
      <trkpt lat="42.6413" lon="1.71032">
        <ele>1841.06</ele>
        <time>2017-06-25T10:02:38Z</time>
      </trkpt>
      <trkpt lat="42.6413" lon="1.71032">
        <ele>1840.1</ele>
        <time>2017-06-25T10:03:21Z</time>
      </trkpt>
      <trkpt lat="42.6413" lon="1.71032">
        <ele>1840.1</ele>
        <time>2017-06-25T10:04:56Z</time>
      </trkpt>
      <trkpt lat="42.6413" lon="1.71033">
        <ele>1839.14</ele>
        <time>2017-06-25T10:06:00Z</time>
      </trkpt>
      <trkpt lat="42.64129" lon="1.71034">
        <ele>1839.14</ele>
        <time>2017-06-25T10:06:26Z</time>
      </trkpt>
      <trkpt lat="42.6413" lon="1.71032">
        <ele>1839.14</ele>
        <time>2017-06-25T10:06:56Z</time>
      </trkpt>
      <trkpt lat="42.64128" lon="1.71032">
        <ele>1839.14</ele>
        <time>2017-06-25T10:09:03Z</time>
      </trkpt>
      <trkpt lat="42.64128" lon="1.71032">
        <ele>1839.14</ele>
        <time>2017-06-25T10:10:25Z</time>
      </trkpt>
      <trkpt lat="42.6413" lon="1.71032">
        <ele>1840.1</ele>
        <time>2017-06-25T10:12:57Z</time>
      </trkpt>
      <trkpt lat="42.6413" lon="1.71031">
        <ele>1839.14</ele>
        <time>2017-06-25T10:15:05Z</time>
      </trkpt>
      <trkpt lat="42.6413" lon="1.71032">
        <ele>1839.14</ele>
        <time>2017-06-25T10:18:12Z</time>
      </trkpt>
      <trkpt lat="42.6413" lon="1.71032">
        <ele>1839.14</ele>
        <time>2017-06-25T10:19:20Z</time>
      </trkpt>
      <trkpt lat="42.6413" lon="1.71031">
        <ele>1839.14</ele>
        <time>2017-06-25T10:20:11Z</time>
      </trkpt>
      <trkpt lat="42.64129" lon="1.7103">
        <ele>1838.18</ele>
        <time>2017-06-25T10:20:50Z</time>
      </trkpt>
      <trkpt lat="42.64131" lon="1.7103">
        <ele>1839.14</ele>
        <time>2017-06-25T10:21:27Z</time>
      </trkpt>
      <trkpt lat="42.64132" lon="1.7103">
        <ele>1839.14</ele>
        <time>2017-06-25T10:22:05Z</time>
      </trkpt>
      <trkpt lat="42.64131" lon="1.7103">
        <ele>1839.14</ele>
        <time>2017-06-25T10:22:38Z</time>
      </trkpt>
      <trkpt lat="42.64132" lon="1.71029">
        <ele>1838.18</ele>
        <time>2017-06-25T10:23:03Z</time>
      </trkpt>
      <trkpt lat="42.64132" lon="1.71032">
        <ele>1838.18</ele>
        <time>2017-06-25T10:23:28Z</time>
      </trkpt>
      <trkpt lat="42.64133" lon="1.71031">
        <ele>1838.18</ele>
        <time>2017-06-25T10:23:50Z</time>
      </trkpt>
      <trkpt lat="42.64137" lon="1.7103">
        <ele>1838.18</ele>
        <time>2017-06-25T10:24:07Z</time>
      </trkpt>
      <trkpt lat="42.64135" lon="1.71031">
        <ele>1838.18</ele>
        <time>2017-06-25T10:24:19Z</time>
      </trkpt>
      <trkpt lat="42.64134" lon="1.7103">
        <ele>1839.14</ele>
        <time>2017-06-25T10:24:45Z</time>
      </trkpt>
      <trkpt lat="42.64134" lon="1.71032">
        <ele>1839.14</ele>
        <time>2017-06-25T10:25:09Z</time>
      </trkpt>
      <trkpt lat="42.64132" lon="1.71028">
        <ele>1839.14</ele>
        <time>2017-06-25T10:25:29Z</time>
      </trkpt>
      <trkpt lat="42.64132" lon="1.71035">
        <ele>1839.14</ele>
        <time>2017-06-25T10:25:46Z</time>
      </trkpt>
      <trkpt lat="42.64132" lon="1.71029">
        <ele>1839.14</ele>
        <time>2017-06-25T10:26:06Z</time>
      </trkpt>
      <trkpt lat="42.64127" lon="1.71023">
        <ele>1839.14</ele>
        <time>2017-06-25T10:26:27Z</time>
      </trkpt>
      <trkpt lat="42.64118" lon="1.71018">
        <ele>1837.22</ele>
        <time>2017-06-25T10:26:40Z</time>
      </trkpt>
      <trkpt lat="42.64114" lon="1.7101">
        <ele>1835.77</ele>
        <time>2017-06-25T10:26:52Z</time>
      </trkpt>
      <trkpt lat="42.64111" lon="1.70996">
        <ele>1833.85</ele>
        <time>2017-06-25T10:27:05Z</time>
      </trkpt>
      <trkpt lat="42.64107" lon="1.70987">
        <ele>1832.89</ele>
        <time>2017-06-25T10:27:17Z</time>
      </trkpt>
      <trkpt lat="42.64103" lon="1.70972">
        <ele>1830.97</ele>
        <time>2017-06-25T10:27:31Z</time>
      </trkpt>
      <trkpt lat="42.64099" lon="1.70962">
        <ele>1829.05</ele>
        <time>2017-06-25T10:27:43Z</time>
      </trkpt>
      <trkpt lat="42.64099" lon="1.7096">
        <ele>1829.05</ele>
        <time>2017-06-25T10:27:45Z</time>
      </trkpt>
      <trkpt lat="42.64098" lon="1.70946">
        <ele>1827.12</ele>
        <time>2017-06-25T10:27:55Z</time>
      </trkpt>
      <trkpt lat="42.64097" lon="1.70939">
        <ele>1826.16</ele>
        <time>2017-06-25T10:28:00Z</time>
      </trkpt>
      <trkpt lat="42.64095" lon="1.70935">
        <ele>1825.2</ele>
        <time>2017-06-25T10:28:03Z</time>
      </trkpt>
      <trkpt lat="42.64094" lon="1.70931">
        <ele>1824.24</ele>
        <time>2017-06-25T10:28:12Z</time>
      </trkpt>
      <trkpt lat="42.64097" lon="1.70927">
        <ele>1824.24</ele>
        <time>2017-06-25T10:28:21Z</time>
      </trkpt>
      <trkpt lat="42.64097" lon="1.70924">
        <ele>1824.24</ele>
        <time>2017-06-25T10:28:24Z</time>
      </trkpt>
      <trkpt lat="42.64098" lon="1.70915">
        <ele>1822.8</ele>
        <time>2017-06-25T10:28:34Z</time>
      </trkpt>
      <trkpt lat="42.64099" lon="1.70907">
        <ele>1821.84</ele>
        <time>2017-06-25T10:28:41Z</time>
      </trkpt>
      <trkpt lat="42.64101" lon="1.70896">
        <ele>1819.91</ele>
        <time>2017-06-25T10:28:52Z</time>
      </trkpt>
      <trkpt lat="42.641" lon="1.70883">
        <ele>1818.95</ele>
        <time>2017-06-25T10:29:00Z</time>
      </trkpt>
      <trkpt lat="42.641" lon="1.70876">
        <ele>1817.99</ele>
        <time>2017-06-25T10:29:07Z</time>
      </trkpt>
      <trkpt lat="42.64094" lon="1.70867">
        <ele>1816.07</ele>
        <time>2017-06-25T10:29:18Z</time>
      </trkpt>
      <trkpt lat="42.64091" lon="1.70863">
        <ele>1816.07</ele>
        <time>2017-06-25T10:29:23Z</time>
      </trkpt>
      <trkpt lat="42.64089" lon="1.70858">
        <ele>1815.11</ele>
        <time>2017-06-25T10:29:29Z</time>
      </trkpt>
      <trkpt lat="42.64087" lon="1.70847">
        <ele>1813.18</ele>
        <time>2017-06-25T10:29:40Z</time>
      </trkpt>
      <trkpt lat="42.64087" lon="1.70836">
        <ele>1812.22</ele>
        <time>2017-06-25T10:29:51Z</time>
      </trkpt>
      <trkpt lat="42.64088" lon="1.70824">
        <ele>1810.78</ele>
        <time>2017-06-25T10:30:06Z</time>
      </trkpt>
      <trkpt lat="42.64086" lon="1.70817">
        <ele>1808.86</ele>
        <time>2017-06-25T10:30:18Z</time>
      </trkpt>
      <trkpt lat="42.64082" lon="1.70804">
        <ele>1806.94</ele>
        <time>2017-06-25T10:30:37Z</time>
      </trkpt>
      <trkpt lat="42.6408" lon="1.70796">
        <ele>1805.01</ele>
        <time>2017-06-25T10:30:55Z</time>
      </trkpt>
      <trkpt lat="42.64077" lon="1.70786">
        <ele>1803.09</ele>
        <time>2017-06-25T10:31:11Z</time>
      </trkpt>
      <trkpt lat="42.64075" lon="1.70779">
        <ele>1800.21</ele>
        <time>2017-06-25T10:31:26Z</time>
      </trkpt>
      <trkpt lat="42.64078" lon="1.70779">
        <ele>1798.76</ele>
        <time>2017-06-25T10:31:41Z</time>
      </trkpt>
      <trkpt lat="42.64075" lon="1.70779">
        <ele>1798.76</ele>
        <time>2017-06-25T10:32:10Z</time>
      </trkpt>
      <trkpt lat="42.64077" lon="1.70774">
        <ele>1798.76</ele>
        <time>2017-06-25T10:32:33Z</time>
      </trkpt>
      <trkpt lat="42.64077" lon="1.70764">
        <ele>1796.84</ele>
        <time>2017-06-25T10:32:47Z</time>
      </trkpt>
      <trkpt lat="42.64075" lon="1.70757">
        <ele>1795.88</ele>
        <time>2017-06-25T10:32:55Z</time>
      </trkpt>
      <trkpt lat="42.64072" lon="1.70741">
        <ele>1794.92</ele>
        <time>2017-06-25T10:33:10Z</time>
      </trkpt>
      <trkpt lat="42.64072" lon="1.70735">
        <ele>1793</ele>
        <time>2017-06-25T10:33:19Z</time>
      </trkpt>
      <trkpt lat="42.64072" lon="1.70733">
        <ele>1793</ele>
        <time>2017-06-25T10:33:21Z</time>
      </trkpt>
      <trkpt lat="42.64074" lon="1.70731">
        <ele>1792.03</ele>
        <time>2017-06-25T10:33:24Z</time>
      </trkpt>
      <trkpt lat="42.64076" lon="1.7072">
        <ele>1791.07</ele>
        <time>2017-06-25T10:33:40Z</time>
      </trkpt>
      <trkpt lat="42.6408" lon="1.70716">
        <ele>1789.15</ele>
        <time>2017-06-25T10:33:58Z</time>
      </trkpt>
      <trkpt lat="42.64081" lon="1.70712">
        <ele>1787.23</ele>
        <time>2017-06-25T10:34:20Z</time>
      </trkpt>
      <trkpt lat="42.64082" lon="1.70708">
        <ele>1787.23</ele>
        <time>2017-06-25T10:34:24Z</time>
      </trkpt>
      <trkpt lat="42.64085" lon="1.707">
        <ele>1787.23</ele>
        <time>2017-06-25T10:34:38Z</time>
      </trkpt>
      <trkpt lat="42.64085" lon="1.70697">
        <ele>1787.23</ele>
        <time>2017-06-25T10:34:43Z</time>
      </trkpt>
      <trkpt lat="42.64086" lon="1.70694">
        <ele>1785.79</ele>
        <time>2017-06-25T10:34:46Z</time>
      </trkpt>
      <trkpt lat="42.6409" lon="1.70689">
        <ele>1784.82</ele>
        <time>2017-06-25T10:34:50Z</time>
      </trkpt>
      <trkpt lat="42.64092" lon="1.70679">
        <ele>1783.86</ele>
        <time>2017-06-25T10:35:03Z</time>
      </trkpt>
      <trkpt lat="42.64091" lon="1.70672">
        <ele>1782.9</ele>
        <time>2017-06-25T10:35:11Z</time>
      </trkpt>
      <trkpt lat="42.6409" lon="1.70667">
        <ele>1782.9</ele>
        <time>2017-06-25T10:35:17Z</time>
      </trkpt>
      <trkpt lat="42.64092" lon="1.70661">
        <ele>1781.94</ele>
        <time>2017-06-25T10:35:22Z</time>
      </trkpt>
      <trkpt lat="42.64095" lon="1.70654">
        <ele>1780.98</ele>
        <time>2017-06-25T10:35:35Z</time>
      </trkpt>
      <trkpt lat="42.64099" lon="1.7065">
        <ele>1780.02</ele>
        <time>2017-06-25T10:35:52Z</time>
      </trkpt>
      <trkpt lat="42.64098" lon="1.70642">
        <ele>1779.06</ele>
        <time>2017-06-25T10:36:11Z</time>
      </trkpt>
      <trkpt lat="42.64098" lon="1.70634">
        <ele>1777.13</ele>
        <time>2017-06-25T10:36:29Z</time>
      </trkpt>
      <trkpt lat="42.64101" lon="1.70625">
        <ele>1775.21</ele>
        <time>2017-06-25T10:36:43Z</time>
      </trkpt>
      <trkpt lat="42.64101" lon="1.70624">
        <ele>1775.21</ele>
        <time>2017-06-25T10:36:44Z</time>
      </trkpt>
      <trkpt lat="42.64108" lon="1.70617">
        <ele>1773.77</ele>
        <time>2017-06-25T10:36:59Z</time>
      </trkpt>
      <trkpt lat="42.64112" lon="1.70611">
        <ele>1773.77</ele>
        <time>2017-06-25T10:37:12Z</time>
      </trkpt>
      <trkpt lat="42.64115" lon="1.70605">
        <ele>1771.85</ele>
        <time>2017-06-25T10:37:30Z</time>
      </trkpt>
      <trkpt lat="42.64115" lon="1.70604">
        <ele>1771.85</ele>
        <time>2017-06-25T10:37:32Z</time>
      </trkpt>
      <trkpt lat="42.64116" lon="1.70594">
        <ele>1769.92</ele>
        <time>2017-06-25T10:37:47Z</time>
      </trkpt>
      <trkpt lat="42.64119" lon="1.70584">
        <ele>1768</ele>
        <time>2017-06-25T10:37:59Z</time>
      </trkpt>
      <trkpt lat="42.64119" lon="1.70578">
        <ele>1766.08</ele>
        <time>2017-06-25T10:38:15Z</time>
      </trkpt>
      <trkpt lat="42.64119" lon="1.7057">
        <ele>1765.12</ele>
        <time>2017-06-25T10:38:30Z</time>
      </trkpt>
      <trkpt lat="42.64122" lon="1.70558">
        <ele>1764.16</ele>
        <time>2017-06-25T10:38:44Z</time>
      </trkpt>
      <trkpt lat="42.64124" lon="1.70547">
        <ele>1762.23</ele>
        <time>2017-06-25T10:38:59Z</time>
      </trkpt>
      <trkpt lat="42.64125" lon="1.70544">
        <ele>1762.23</ele>
        <time>2017-06-25T10:39:03Z</time>
      </trkpt>
      <trkpt lat="42.64133" lon="1.70534">
        <ele>1759.83</ele>
        <time>2017-06-25T10:39:19Z</time>
      </trkpt>
      <trkpt lat="42.64138" lon="1.70527">
        <ele>1757.91</ele>
        <time>2017-06-25T10:39:35Z</time>
      </trkpt>
      <trkpt lat="42.64141" lon="1.70519">
        <ele>1755.99</ele>
        <time>2017-06-25T10:39:50Z</time>
      </trkpt>
      <trkpt lat="42.64141" lon="1.70514">
        <ele>1755.99</ele>
        <time>2017-06-25T10:39:58Z</time>
      </trkpt>
      <trkpt lat="42.64149" lon="1.70504">
        <ele>1753.1</ele>
        <time>2017-06-25T10:40:15Z</time>
      </trkpt>
      <trkpt lat="42.64153" lon="1.70498">
        <ele>1751.18</ele>
        <time>2017-06-25T10:40:32Z</time>
      </trkpt>
      <trkpt lat="42.64155" lon="1.7049">
        <ele>1747.81</ele>
        <time>2017-06-25T10:40:49Z</time>
      </trkpt>
      <trkpt lat="42.64161" lon="1.70479">
        <ele>1744.93</ele>
        <time>2017-06-25T10:41:06Z</time>
      </trkpt>
      <trkpt lat="42.64168" lon="1.7047">
        <ele>1743.97</ele>
        <time>2017-06-25T10:41:12Z</time>
      </trkpt>
      <trkpt lat="42.64176" lon="1.70455">
        <ele>1743.01</ele>
        <time>2017-06-25T10:41:24Z</time>
      </trkpt>
      <trkpt lat="42.64175" lon="1.70457">
        <ele>1742.05</ele>
        <time>2017-06-25T10:41:31Z</time>
      </trkpt>
      <trkpt lat="42.64178" lon="1.70456">
        <ele>1741.08</ele>
        <time>2017-06-25T10:41:47Z</time>
      </trkpt>
      <trkpt lat="42.64179" lon="1.70449">
        <ele>1740.12</ele>
        <time>2017-06-25T10:42:28Z</time>
      </trkpt>
      <trkpt lat="42.64172" lon="1.70444">
        <ele>1737.24</ele>
        <time>2017-06-25T10:42:49Z</time>
      </trkpt>
      <trkpt lat="42.64176" lon="1.70437">
        <ele>1734.84</ele>
        <time>2017-06-25T10:43:03Z</time>
      </trkpt>
      <trkpt lat="42.64178" lon="1.70428">
        <ele>1731.95</ele>
        <time>2017-06-25T10:43:22Z</time>
      </trkpt>
      <trkpt lat="42.64181" lon="1.70426">
        <ele>1729.07</ele>
        <time>2017-06-25T10:43:38Z</time>
      </trkpt>
      <trkpt lat="42.64186" lon="1.70417">
        <ele>1726.18</ele>
        <time>2017-06-25T10:43:55Z</time>
      </trkpt>
      <trkpt lat="42.64184" lon="1.70416">
        <ele>1723.78</ele>
        <time>2017-06-25T10:44:08Z</time>
      </trkpt>
      <trkpt lat="42.64184" lon="1.70406">
        <ele>1721.86</ele>
        <time>2017-06-25T10:44:24Z</time>
      </trkpt>
      <trkpt lat="42.64195" lon="1.704">
        <ele>1718.97</ele>
        <time>2017-06-25T10:44:39Z</time>
      </trkpt>
      <trkpt lat="42.64198" lon="1.70396">
        <ele>1718.01</ele>
        <time>2017-06-25T10:44:46Z</time>
      </trkpt>
      <trkpt lat="42.64204" lon="1.70381">
        <ele>1715.13</ele>
        <time>2017-06-25T10:45:03Z</time>
      </trkpt>
      <trkpt lat="42.64209" lon="1.70371">
        <ele>1713.21</ele>
        <time>2017-06-25T10:45:17Z</time>
      </trkpt>
      <trkpt lat="42.64215" lon="1.70362">
        <ele>1710.8</ele>
        <time>2017-06-25T10:45:30Z</time>
      </trkpt>
      <trkpt lat="42.64219" lon="1.70356">
        <ele>1707.92</ele>
        <time>2017-06-25T10:45:46Z</time>
      </trkpt>
      <trkpt lat="42.6422" lon="1.70355">
        <ele>1707.92</ele>
        <time>2017-06-25T10:45:47Z</time>
      </trkpt>
      <trkpt lat="42.64223" lon="1.70347">
        <ele>1706.96</ele>
        <time>2017-06-25T10:45:56Z</time>
      </trkpt>
      <trkpt lat="42.64229" lon="1.70341">
        <ele>1706</ele>
        <time>2017-06-25T10:46:05Z</time>
      </trkpt>
      <trkpt lat="42.64243" lon="1.7033">
        <ele>1703.11</ele>
        <time>2017-06-25T10:46:23Z</time>
      </trkpt>
      <trkpt lat="42.64252" lon="1.70322">
        <ele>1701.19</ele>
        <time>2017-06-25T10:46:39Z</time>
      </trkpt>
      <trkpt lat="42.64259" lon="1.7032">
        <ele>1698.79</ele>
        <time>2017-06-25T10:46:51Z</time>
      </trkpt>
      <trkpt lat="42.64264" lon="1.70319">
        <ele>1697.83</ele>
        <time>2017-06-25T10:46:55Z</time>
      </trkpt>
      <trkpt lat="42.64281" lon="1.70317">
        <ele>1696.86</ele>
        <time>2017-06-25T10:47:11Z</time>
      </trkpt>
      <trkpt lat="42.64289" lon="1.70315">
        <ele>1694.94</ele>
        <time>2017-06-25T10:47:30Z</time>
      </trkpt>
      <trkpt lat="42.64295" lon="1.70314">
        <ele>1693.02</ele>
        <time>2017-06-25T10:47:39Z</time>
      </trkpt>
      <trkpt lat="42.64304" lon="1.70314">
        <ele>1693.02</ele>
        <time>2017-06-25T10:47:52Z</time>
      </trkpt>
      <trkpt lat="42.64315" lon="1.70315">
        <ele>1691.1</ele>
        <time>2017-06-25T10:48:08Z</time>
      </trkpt>
      <trkpt lat="42.64325" lon="1.70305">
        <ele>1690.14</ele>
        <time>2017-06-25T10:48:20Z</time>
      </trkpt>
      <trkpt lat="42.64327" lon="1.70303">
        <ele>1689.17</ele>
        <time>2017-06-25T10:48:33Z</time>
      </trkpt>
      <trkpt lat="42.64332" lon="1.70298">
        <ele>1689.17</ele>
        <time>2017-06-25T10:48:49Z</time>
      </trkpt>
      <trkpt lat="42.64333" lon="1.70298">
        <ele>1689.17</ele>
        <time>2017-06-25T10:48:50Z</time>
      </trkpt>
      <trkpt lat="42.64342" lon="1.70292">
        <ele>1688.21</ele>
        <time>2017-06-25T10:49:01Z</time>
      </trkpt>
      <trkpt lat="42.64353" lon="1.70287">
        <ele>1684.85</ele>
        <time>2017-06-25T10:49:17Z</time>
      </trkpt>
      <trkpt lat="42.64371" lon="1.70275">
        <ele>1681.96</ele>
        <time>2017-06-25T10:49:35Z</time>
      </trkpt>
      <trkpt lat="42.64384" lon="1.70269">
        <ele>1680.04</ele>
        <time>2017-06-25T10:49:51Z</time>
      </trkpt>
      <trkpt lat="42.64389" lon="1.70267">
        <ele>1679.08</ele>
        <time>2017-06-25T10:49:56Z</time>
      </trkpt>
      <trkpt lat="42.64401" lon="1.70265">
        <ele>1678.12</ele>
        <time>2017-06-25T10:50:10Z</time>
      </trkpt>
      <trkpt lat="42.64403" lon="1.70265">
        <ele>1677.16</ele>
        <time>2017-06-25T10:50:12Z</time>
      </trkpt>
      <trkpt lat="42.64405" lon="1.70263">
        <ele>1677.16</ele>
        <time>2017-06-25T10:50:16Z</time>
      </trkpt>
      <trkpt lat="42.64412" lon="1.70268">
        <ele>1676.2</ele>
        <time>2017-06-25T10:50:27Z</time>
      </trkpt>
      <trkpt lat="42.64423" lon="1.70267">
        <ele>1675.23</ele>
        <time>2017-06-25T10:50:43Z</time>
      </trkpt>
      <trkpt lat="42.64427" lon="1.70266">
        <ele>1675.23</ele>
        <time>2017-06-25T10:50:46Z</time>
      </trkpt>
      <trkpt lat="42.64429" lon="1.70262">
        <ele>1675.23</ele>
        <time>2017-06-25T10:50:50Z</time>
      </trkpt>
      <trkpt lat="42.64439" lon="1.70257">
        <ele>1675.23</ele>
        <time>2017-06-25T10:51:03Z</time>
      </trkpt>
      <trkpt lat="42.64456" lon="1.70245">
        <ele>1675.23</ele>
        <time>2017-06-25T10:51:23Z</time>
      </trkpt>
      <trkpt lat="42.64457" lon="1.70246">
        <ele>1675.23</ele>
        <time>2017-06-25T10:51:25Z</time>
      </trkpt>
      <trkpt lat="42.64459" lon="1.70251">
        <ele>1673.79</ele>
        <time>2017-06-25T10:51:37Z</time>
      </trkpt>
      <trkpt lat="42.64464" lon="1.7025">
        <ele>1673.79</ele>
        <time>2017-06-25T10:51:39Z</time>
      </trkpt>
      <trkpt lat="42.64485" lon="1.70246">
        <ele>1672.83</ele>
        <time>2017-06-25T10:52:02Z</time>
      </trkpt>
      <trkpt lat="42.64499" lon="1.70247">
        <ele>1672.83</ele>
        <time>2017-06-25T10:52:18Z</time>
      </trkpt>
      <trkpt lat="42.64511" lon="1.70245">
        <ele>1671.87</ele>
        <time>2017-06-25T10:52:38Z</time>
      </trkpt>
      <trkpt lat="42.64525" lon="1.70254">
        <ele>1671.87</ele>
        <time>2017-06-25T10:52:57Z</time>
      </trkpt>
      <trkpt lat="42.64536" lon="1.70255">
        <ele>1671.87</ele>
        <time>2017-06-25T10:53:14Z</time>
      </trkpt>
      <trkpt lat="42.64546" lon="1.70256">
        <ele>1671.87</ele>
        <time>2017-06-25T10:53:33Z</time>
      </trkpt>
      <trkpt lat="42.64552" lon="1.70258">
        <ele>1670.91</ele>
        <time>2017-06-25T10:53:44Z</time>
      </trkpt>
      <trkpt lat="42.64564" lon="1.70259">
        <ele>1671.87</ele>
        <time>2017-06-25T10:53:58Z</time>
      </trkpt>
      <trkpt lat="42.64571" lon="1.7026">
        <ele>1672.83</ele>
        <time>2017-06-25T10:54:13Z</time>
      </trkpt>
      <trkpt lat="42.64572" lon="1.70261">
        <ele>1672.83</ele>
        <time>2017-06-25T10:54:14Z</time>
      </trkpt>
      <trkpt lat="42.64587" lon="1.70264">
        <ele>1675.23</ele>
        <time>2017-06-25T10:54:27Z</time>
      </trkpt>
      <trkpt lat="42.64591" lon="1.70266">
        <ele>1675.23</ele>
        <time>2017-06-25T10:54:32Z</time>
      </trkpt>
      <trkpt lat="42.646" lon="1.70268">
        <ele>1675.23</ele>
        <time>2017-06-25T10:54:46Z</time>
      </trkpt>
      <trkpt lat="42.64611" lon="1.70266">
        <ele>1673.79</ele>
        <time>2017-06-25T10:55:01Z</time>
      </trkpt>
      <trkpt lat="42.64614" lon="1.70266">
        <ele>1675.23</ele>
        <time>2017-06-25T10:55:21Z</time>
      </trkpt>
      <trkpt lat="42.64618" lon="1.70269">
        <ele>1675.23</ele>
        <time>2017-06-25T10:55:27Z</time>
      </trkpt>
      <trkpt lat="42.64625" lon="1.70268">
        <ele>1675.23</ele>
        <time>2017-06-25T10:55:32Z</time>
      </trkpt>
      <trkpt lat="42.64625" lon="1.70272">
        <ele>1676.2</ele>
        <time>2017-06-25T10:55:41Z</time>
      </trkpt>
      <trkpt lat="42.64627" lon="1.70273">
        <ele>1676.2</ele>
        <time>2017-06-25T10:55:43Z</time>
      </trkpt>
      <trkpt lat="42.64647" lon="1.70277">
        <ele>1676.2</ele>
        <time>2017-06-25T10:56:00Z</time>
      </trkpt>
      <trkpt lat="42.64656" lon="1.70283">
        <ele>1676.2</ele>
        <time>2017-06-25T10:56:10Z</time>
      </trkpt>
      <trkpt lat="42.64664" lon="1.7029">
        <ele>1676.2</ele>
        <time>2017-06-25T10:56:25Z</time>
      </trkpt>
      <trkpt lat="42.64678" lon="1.7029">
        <ele>1675.23</ele>
        <time>2017-06-25T10:56:37Z</time>
      </trkpt>
      <trkpt lat="42.64684" lon="1.70288">
        <ele>1673.79</ele>
        <time>2017-06-25T10:56:49Z</time>
      </trkpt>
      <trkpt lat="42.64686" lon="1.7029">
        <ele>1671.87</ele>
        <time>2017-06-25T10:57:02Z</time>
      </trkpt>
      <trkpt lat="42.64691" lon="1.70297">
        <ele>1670.91</ele>
        <time>2017-06-25T10:57:11Z</time>
      </trkpt>
      <trkpt lat="42.64692" lon="1.70304">
        <ele>1669.95</ele>
        <time>2017-06-25T10:57:19Z</time>
      </trkpt>
      <trkpt lat="42.64694" lon="1.7031">
        <ele>1668.02</ele>
        <time>2017-06-25T10:57:26Z</time>
      </trkpt>
      <trkpt lat="42.64696" lon="1.70312">
        <ele>1668.02</ele>
        <time>2017-06-25T10:57:29Z</time>
      </trkpt>
      <trkpt lat="42.64703" lon="1.70315">
        <ele>1668.02</ele>
        <time>2017-06-25T10:57:36Z</time>
      </trkpt>
      <trkpt lat="42.64707" lon="1.70316">
        <ele>1668.02</ele>
        <time>2017-06-25T10:57:48Z</time>
      </trkpt>
      <trkpt lat="42.64713" lon="1.7032">
        <ele>1666.1</ele>
        <time>2017-06-25T10:58:04Z</time>
      </trkpt>
      <trkpt lat="42.64715" lon="1.70327">
        <ele>1666.1</ele>
        <time>2017-06-25T10:58:09Z</time>
      </trkpt>
      <trkpt lat="42.64721" lon="1.70327">
        <ele>1664.18</ele>
        <time>2017-06-25T10:58:17Z</time>
      </trkpt>
      <trkpt lat="42.64733" lon="1.70332">
        <ele>1663.22</ele>
        <time>2017-06-25T10:58:32Z</time>
      </trkpt>
      <trkpt lat="42.64744" lon="1.70331">
        <ele>1663.22</ele>
        <time>2017-06-25T10:58:49Z</time>
      </trkpt>
      <trkpt lat="42.64748" lon="1.70332">
        <ele>1661.78</ele>
        <time>2017-06-25T10:58:57Z</time>
      </trkpt>
      <trkpt lat="42.64757" lon="1.70327">
        <ele>1661.78</ele>
        <time>2017-06-25T10:59:10Z</time>
      </trkpt>
      <trkpt lat="42.64767" lon="1.70334">
        <ele>1660.81</ele>
        <time>2017-06-25T10:59:29Z</time>
      </trkpt>
      <trkpt lat="42.64773" lon="1.70338">
        <ele>1658.89</ele>
        <time>2017-06-25T10:59:41Z</time>
      </trkpt>
      <trkpt lat="42.64782" lon="1.7034">
        <ele>1658.89</ele>
        <time>2017-06-25T10:59:56Z</time>
      </trkpt>
      <trkpt lat="42.64792" lon="1.70342">
        <ele>1658.89</ele>
        <time>2017-06-25T11:00:12Z</time>
      </trkpt>
      <trkpt lat="42.64795" lon="1.70343">
        <ele>1658.89</ele>
        <time>2017-06-25T11:00:17Z</time>
      </trkpt>
      <trkpt lat="42.648" lon="1.70353">
        <ele>1657.93</ele>
        <time>2017-06-25T11:00:31Z</time>
      </trkpt>
      <trkpt lat="42.64808" lon="1.70355">
        <ele>1657.93</ele>
        <time>2017-06-25T11:00:47Z</time>
      </trkpt>
      <trkpt lat="42.64816" lon="1.70356">
        <ele>1656.97</ele>
        <time>2017-06-25T11:01:02Z</time>
      </trkpt>
      <trkpt lat="42.64815" lon="1.70362">
        <ele>1657.93</ele>
        <time>2017-06-25T11:01:20Z</time>
      </trkpt>
      <trkpt lat="42.64821" lon="1.70356">
        <ele>1656.97</ele>
        <time>2017-06-25T11:01:37Z</time>
      </trkpt>
      <trkpt lat="42.64825" lon="1.70353">
        <ele>1656.97</ele>
        <time>2017-06-25T11:02:04Z</time>
      </trkpt>
      <trkpt lat="42.64831" lon="1.70354">
        <ele>1656.97</ele>
        <time>2017-06-25T11:02:28Z</time>
      </trkpt>
      <trkpt lat="42.64839" lon="1.70356">
        <ele>1656.97</ele>
        <time>2017-06-25T11:02:47Z</time>
      </trkpt>
      <trkpt lat="42.64847" lon="1.70356">
        <ele>1656.97</ele>
        <time>2017-06-25T11:03:05Z</time>
      </trkpt>
      <trkpt lat="42.6485" lon="1.70358">
        <ele>1656.97</ele>
        <time>2017-06-25T11:03:26Z</time>
      </trkpt>
      <trkpt lat="42.6485" lon="1.70356">
        <ele>1656.97</ele>
        <time>2017-06-25T11:03:45Z</time>
      </trkpt>
      <trkpt lat="42.64852" lon="1.70355">
        <ele>1656.97</ele>
        <time>2017-06-25T11:04:14Z</time>
      </trkpt>
      <trkpt lat="42.64848" lon="1.70356">
        <ele>1656.97</ele>
        <time>2017-06-25T11:04:45Z</time>
      </trkpt>
      <trkpt lat="42.64851" lon="1.70353">
        <ele>1656.97</ele>
        <time>2017-06-25T11:04:59Z</time>
      </trkpt>
      <trkpt lat="42.6485" lon="1.7036">
        <ele>1656.97</ele>
        <time>2017-06-25T11:05:19Z</time>
      </trkpt>
      <trkpt lat="42.64855" lon="1.70359">
        <ele>1656.01</ele>
        <time>2017-06-25T11:05:43Z</time>
      </trkpt>
      <trkpt lat="42.64858" lon="1.70354">
        <ele>1656.01</ele>
        <time>2017-06-25T11:06:06Z</time>
      </trkpt>
      <trkpt lat="42.64856" lon="1.70353">
        <ele>1656.01</ele>
        <time>2017-06-25T11:06:51Z</time>
      </trkpt>
      <trkpt lat="42.64857" lon="1.7035">
        <ele>1656.01</ele>
        <time>2017-06-25T11:07:28Z</time>
      </trkpt>
      <trkpt lat="42.64857" lon="1.7035">
        <ele>1656.01</ele>
        <time>2017-06-25T11:07:34Z</time>
      </trkpt>
      <trkpt lat="42.64856" lon="1.70352">
        <ele>1656.01</ele>
        <time>2017-06-25T11:08:00Z</time>
      </trkpt>
      <trkpt lat="42.64853" lon="1.70354">
        <ele>1656.01</ele>
        <time>2017-06-25T11:08:50Z</time>
      </trkpt>
      <trkpt lat="42.64852" lon="1.70355">
        <ele>1656.01</ele>
        <time>2017-06-25T11:09:33Z</time>
      </trkpt>
      <trkpt lat="42.64852" lon="1.70356">
        <ele>1656.01</ele>
        <time>2017-06-25T11:11:10Z</time>
      </trkpt>
      <trkpt lat="42.64849" lon="1.70355">
        <ele>1656.01</ele>
        <time>2017-06-25T11:12:25Z</time>
      </trkpt>
      <trkpt lat="42.64849" lon="1.70356">
        <ele>1656.97</ele>
        <time>2017-06-25T11:14:03Z</time>
      </trkpt>
      <trkpt lat="42.64852" lon="1.70356">
        <ele>1656.97</ele>
        <time>2017-06-25T11:14:26Z</time>
      </trkpt>
      <trkpt lat="42.64856" lon="1.70357">
        <ele>1656.97</ele>
        <time>2017-06-25T11:14:30Z</time>
      </trkpt>
      <trkpt lat="42.6487" lon="1.70351">
        <ele>1656.97</ele>
        <time>2017-06-25T11:14:43Z</time>
      </trkpt>
      <trkpt lat="42.64884" lon="1.70345">
        <ele>1657.93</ele>
        <time>2017-06-25T11:14:59Z</time>
      </trkpt>
      <trkpt lat="42.64892" lon="1.70353">
        <ele>1656.97</ele>
        <time>2017-06-25T11:15:14Z</time>
      </trkpt>
      <trkpt lat="42.64901" lon="1.70347">
        <ele>1657.93</ele>
        <time>2017-06-25T11:15:29Z</time>
      </trkpt>
      <trkpt lat="42.64906" lon="1.70344">
        <ele>1656.97</ele>
        <time>2017-06-25T11:15:50Z</time>
      </trkpt>
      <trkpt lat="42.64915" lon="1.7034">
        <ele>1655.05</ele>
        <time>2017-06-25T11:16:07Z</time>
      </trkpt>
      <trkpt lat="42.64917" lon="1.70336">
        <ele>1655.05</ele>
        <time>2017-06-25T11:16:12Z</time>
      </trkpt>
      <trkpt lat="42.64922" lon="1.70335">
        <ele>1654.09</ele>
        <time>2017-06-25T11:16:21Z</time>
      </trkpt>
      <trkpt lat="42.64932" lon="1.70343">
        <ele>1654.09</ele>
        <time>2017-06-25T11:16:34Z</time>
      </trkpt>
      <trkpt lat="42.64932" lon="1.70344">
        <ele>1654.09</ele>
        <time>2017-06-25T11:16:35Z</time>
      </trkpt>
      <trkpt lat="42.64938" lon="1.70351">
        <ele>1655.05</ele>
        <time>2017-06-25T11:16:44Z</time>
      </trkpt>
      <trkpt lat="42.6494" lon="1.70351">
        <ele>1655.05</ele>
        <time>2017-06-25T11:16:46Z</time>
      </trkpt>
      <trkpt lat="42.64942" lon="1.70353">
        <ele>1655.05</ele>
        <time>2017-06-25T11:16:49Z</time>
      </trkpt>
      <trkpt lat="42.64949" lon="1.70351">
        <ele>1655.05</ele>
        <time>2017-06-25T11:16:54Z</time>
      </trkpt>
      <trkpt lat="42.64961" lon="1.70353">
        <ele>1655.05</ele>
        <time>2017-06-25T11:17:06Z</time>
      </trkpt>
      <trkpt lat="42.64962" lon="1.70355">
        <ele>1655.05</ele>
        <time>2017-06-25T11:17:08Z</time>
      </trkpt>
      <trkpt lat="42.64979" lon="1.70355">
        <ele>1655.05</ele>
        <time>2017-06-25T11:17:22Z</time>
      </trkpt>
      <trkpt lat="42.64983" lon="1.70356">
        <ele>1655.05</ele>
        <time>2017-06-25T11:17:28Z</time>
      </trkpt>
      <trkpt lat="42.64992" lon="1.70353">
        <ele>1654.09</ele>
        <time>2017-06-25T11:17:39Z</time>
      </trkpt>
      <trkpt lat="42.65005" lon="1.70347">
        <ele>1653.12</ele>
        <time>2017-06-25T11:17:54Z</time>
      </trkpt>
      <trkpt lat="42.65018" lon="1.7035">
        <ele>1653.12</ele>
        <time>2017-06-25T11:18:08Z</time>
      </trkpt>
      <trkpt lat="42.65032" lon="1.70347">
        <ele>1653.12</ele>
        <time>2017-06-25T11:18:23Z</time>
      </trkpt>
      <trkpt lat="42.65052" lon="1.70352">
        <ele>1653.12</ele>
        <time>2017-06-25T11:18:39Z</time>
      </trkpt>
      <trkpt lat="42.65064" lon="1.70348">
        <ele>1653.12</ele>
        <time>2017-06-25T11:18:48Z</time>
      </trkpt>
      <trkpt lat="42.65071" lon="1.7035">
        <ele>1653.12</ele>
        <time>2017-06-25T11:18:53Z</time>
      </trkpt>
      <trkpt lat="42.65076" lon="1.70353">
        <ele>1653.12</ele>
        <time>2017-06-25T11:18:59Z</time>
      </trkpt>
      <trkpt lat="42.65087" lon="1.70351">
        <ele>1652.16</ele>
        <time>2017-06-25T11:19:08Z</time>
      </trkpt>
    </trkseg>
  </trk>
</gpx>